Flight Track Log - Related Links

Times and Time Zones

All times are in EDT time to prevent confusion due to time zone crossing. See the DAL268 flight status page for this flight to view local times or setup timezone preferences in your user account.

Time Position Orientation Groundspeed Altitude Reporting Facility
EDT Latitude Longitude Course Direction KTS MPH feet Rate Location/Type
Wed 12:40:30 AM 40.6370 -73.7800 261° West  Level FlightAware ADS-B
Wed 01:01:50 AM 40.6390 -73.7720 208° Southwest 115 132 27 Level FlightAware ADS-B
Wed 01:02:10 AM 40.6280 -73.7810 212° Southwest 175 201 837 Level FlightAware ADS-B
Wed 01:02:33 AM 40.6100 -73.7940 209° Southwest 182 209 600 1,636 Climbing FlightAware ADS-B
Wed 01:02:54 AM 40.5930 -73.8060 208° Southwest 188 216 1,200 1,350 Climbing FlightAware ADS-B
Wed 01:03:13 AM 40.5770 -73.8140 201° Southwest 208 239 1,500 1,029 Climbing FlightAware ADS-B
Wed 01:03:29 AM 40.5630 -73.8240 208° Southwest 229 264 1,800 1,167 Climbing FlightAware ADS-B
Wed 01:03:49 AM 40.5430 -73.8390 210° Southwest 246 283 2,200 1,171 Climbing FlightAware ADS-B
Wed 01:04:10 AM 40.5220 -73.8530 207° Southwest 264 304 2,600 1,463 Climbing FlightAware ADS-B
Wed 01:04:30 AM 40.4950 -73.8620 194° South 285 328 3,200 2,129 Climbing FlightAware ADS-B
Wed 01:04:41 AM 40.4802 -73.8625 181° South 288 331 3,700 2,625 Climbing FlightAware ADS-B
Wed 01:04:46 AM 40.4733 -73.8613 172° South 293 337 3,900 2,250 Climbing FlightAware ADS-B
Wed 01:04:49 AM 40.4691 -73.8601 168° South 296 341 4,000 1,714 Climbing FlightAware ADS-B
Wed 01:04:53 AM 40.4649 -73.8584 163° South 299 344 4,100 1,714 Climbing FlightAware ADS-B
Wed 01:04:56 AM 40.4610 -73.8562 157° South 301 346 4,200 3,000 Climbing FlightAware ADS-B
Wed 01:04:59 AM 40.4572 -73.8525 143° Southeast 302 348 4,400 3,000 Climbing FlightAware ADS-B
Wed 01:05:04 AM 40.4517 -73.8470 143° Southeast 300 345 4,600 2,250 Climbing FlightAware ADS-B
Wed 01:05:07 AM 40.4483 -73.8433 140° Southeast 301 346 4,700 1,714 Climbing FlightAware ADS-B
Wed 01:05:11 AM 40.4452 -73.8391 134° Southeast 303 349 4,800 2,250 Climbing FlightAware ADS-B
Wed 01:05:15 AM 40.4419 -73.8316 120° Southeast 304 350 5,000 2,571 Climbing FlightAware ADS-B
Wed 01:05:18 AM 40.4398 -73.8283 130° Southeast 305 351 5,100 3,000 Climbing FlightAware ADS-B
Wed 01:05:21 AM 40.4376 -73.8216 113° Southeast 307 353 5,300 2,571 Climbing FlightAware ADS-B
Wed 01:05:25 AM 40.4362 -73.8163 109° East 308 354 5,400 2,571 Climbing FlightAware ADS-B
Wed 01:05:28 AM 40.4350 -73.8109 106° East 309 356 5,600 3,000 Climbing FlightAware ADS-B
Wed 01:05:31 AM 40.4342 -73.8035 98° East 310 357 5,700 2,571 Climbing FlightAware ADS-B
Wed 01:05:35 AM 40.4339 -73.7979 94° East 311 358 5,900 2,571 Climbing FlightAware ADS-B
Wed 01:05:38 AM 40.4340 -73.7922 89° East 311 358 6,000 2,000 Climbing FlightAware ADS-B
Wed 01:05:41 AM 40.4346 -73.7848 84° East 312 359 6,100 2,571 Climbing FlightAware ADS-B
Wed 01:05:45 AM 40.4356 -73.7773 80° East 312 359 6,300 2,842 Climbing FlightAware ADS-B
Wed 01:06:00 AM 40.4404 -73.7496 77° East 313 360 7,000 2,710 Climbing FlightAware ADS-B
Wed 01:06:16 AM 40.4459 -73.7197 76° East 317 365 7,700 2,438 Climbing FlightAware ADS-B
Wed 01:06:32 AM 40.4513 -73.6898 77° East 318 366 8,300 2,438 Climbing FlightAware ADS-B
Wed 01:06:48 AM 40.4565 -73.6593 77° East 321 369 9,000 2,625 Climbing FlightAware ADS-B
Wed 01:07:04 AM 40.4614 -73.6306 77° East 322 371 9,700 2,170 Climbing FlightAware ADS-B
Wed 01:07:35 AM 40.4713 -73.5704 78° East 335 386 10,700 1,245 Climbing FlightAware ADS-B
Wed 01:07:57 AM 40.4789 -73.5225 78° East 364 419 10,800 176 Climbing FlightAware ADS-B
Wed 01:08:09 AM 40.4810 -73.4974 84° East 384 442 10,800  Level FlightAware ADS-B
Wed 01:08:18 AM 40.4804 -73.4735 92° East 397 457 10,800 462 Level FlightAware ADS-B
Wed 01:08:48 AM 40.4724 -73.4000 98° East 410 472 11,100 923 Climbing FlightAware ADS-B
Wed 01:08:57 AM 40.4707 -73.3776 96° East 412 474 11,400 2,323 Climbing FlightAware ADS-B
Wed 01:09:19 AM 40.4736 -73.3224 86° East 417 480 12,300 2,167 Climbing FlightAware ADS-B
Wed 01:09:33 AM 40.4801 -73.2879 76° East 422 486 12,700 2,049 Climbing FlightAware ADS-B
Wed 01:10:00 AM 40.5015 -73.2240 66° East 428 493 13,700 2,172 Climbing FlightAware ADS-B
Wed 01:10:31 AM 40.5273 -73.1501 65° Northeast 434 499 14,800 2,087 Climbing FlightAware ADS-B
Wed 01:11:09 AM 40.5600 -73.0580 65° Northeast 442 509 16,100 1,923 Climbing FlightAware ADS-B
Wed 01:11:49 AM 40.5921 -72.9576 67° East 452 520 17,300 1,859 Climbing FlightAware ADS-B
Wed 01:12:20 AM 40.6167 -72.8779 68° East 458 527 18,300 1,810 Climbing FlightAware ADS-B
Wed 01:12:52 AM 40.6423 -72.7945 68° East 466 536 19,200 1,645 Climbing FlightAware ADS-B
Wed 01:13:22 AM 40.6673 -72.7154 67° East 470 541 20,000 1,688 Climbing FlightAware ADS-B
Wed 01:13:56 AM 40.6949 -72.6276 67° East 474 545 21,000 1,781 Climbing FlightAware ADS-B
Wed 01:14:26 AM 40.7201 -72.5446 68° East 476 548 21,900 1,800 Climbing FlightAware ADS-B
Wed 01:14:56 AM 40.7457 -72.4639 67° East 477 549 22,800 1,672 Climbing FlightAware ADS-B
Wed 01:15:27 AM 40.7711 -72.3801 68° East 480 552 23,600 1,475 Climbing FlightAware ADS-B
Wed 01:15:57 AM 40.7966 -72.2987 67° East 483 556 24,300 1,279 Climbing FlightAware ADS-B
Wed 01:16:28 AM 40.8227 -72.2137 68° East 489 563 24,900 1,143 Climbing FlightAware ADS-B
Wed 01:17:00 AM 40.8497 -72.1245 68° East 493 567 25,500 1,048 Climbing FlightAware ADS-B
Wed 01:17:31 AM 40.8762 -72.0373 68° East 499 574 26,000 1,065 Climbing FlightAware ADS-B
Wed 01:18:02 AM 40.9027 -71.9518 68° East 504 580 26,600 1,082 Climbing FlightAware ADS-B
Wed 01:18:32 AM 40.9289 -71.8658 68° East 509 586 27,100 1,082 Climbing FlightAware ADS-B
Wed 01:19:03 AM 40.9565 -71.7731 68° East 510 587 27,700 1,521 Climbing FlightAware ADS-B
Wed 01:19:43 AM 40.9903 -71.6609 68° East 505 581 28,900 2,366 Climbing FlightAware ADS-B
Wed 01:20:14 AM 41.0164 -71.5728 69° East 478 550 30,500 2,066 Climbing FlightAware ADS-B
Wed 01:20:44 AM 41.0408 -71.4918 68° East 478 550 31,000 387 Climbing FlightAware ADS-B
Wed 01:21:16 AM 41.0671 -71.4041 68° East 483 556 30,900 -92 Descending FlightAware ADS-B
Wed 01:21:49 AM 41.0936 -71.3133 69° East 483 556 30,900  Level FlightAware ADS-B
Wed 01:22:20 AM 41.1180 -71.2310 68° East 483 556 30,900  Level FlightAware ADS-B
Wed 01:22:33 AM 41.1297 -71.1918 68° East 483 556 30,900  Level FlightAware ADS-B
Wed 01:23:19 AM 41.1667 -71.0651 69° East 483 556 30,900  Level FlightAware ADS-B
Wed 01:24:05 AM 41.2030 -70.9410 69° East 480 552 30,900  Level FlightAware ADS-B
Wed 01:24:16 AM 41.2126 -70.9078 69° East 482 555 30,900  Level FlightAware ADS-B
Wed 01:25:00 AM 41.2430 -70.8020 69° East 479 551 30,900  Level FlightAware ADS-B
Wed 01:25:30 AM 41.2700 -70.7120 68° East 479 551 30,900  Level FlightAware ADS-B
Wed 01:26:24 AM 41.3080 -70.5770 69° East 478 550 30,900  Level FlightAware ADS-B
Wed 01:27:00 AM 41.3310 -70.4920 70° East 478 550 30,900  Level FlightAware ADS-B
Wed 01:27:36 AM 41.3540 -70.4080 70° East 478 550 30,900  Level FlightAware ADS-B
Wed 01:28:12 AM 41.3970 -70.2690 68° East 479 551 30,900  Level FlightAware ADS-B
Wed 01:28:49 AM 41.4210 -70.1820 70° East 479 551 30,900  Level FlightAware ADS-B
Wed 01:29:25 AM 41.4440 -70.0970 70° East 479 551 30,900  Level FlightAware ADS-B
Wed 01:30:01 AM 41.4670 -70.0120 70° East 479 551 30,900  Level FlightAware ADS-B
Wed 01:30:37 AM 41.4900 -69.9270 70° East 479 551 30,900  Level FlightAware ADS-B
Wed 01:31:13 AM 41.5130 -69.8420 70° East 479 551 30,900  Level FlightAware ADS-B
Wed 01:31:50 AM 41.5370 -69.7540 70° East 479 551 30,900  Level FlightAware ADS-B
Wed 01:32:26 AM 41.5600 -69.6690 70° East 479 551 30,900  Level FlightAware ADS-B
Wed 01:33:03 AM 41.5840 -69.5820 70° East 479 551 30,900  Level FlightAware ADS-B
Wed 01:33:39 AM 41.6070 -69.4960 70° East 479 551 30,900  Level FlightAware ADS-B
Wed 01:39:29 AM 41.9160 -68.3730 69° East 480 552 30,900  Level FlightAware ADS-B
Wed 01:40:17 AM 41.9520 -68.2350 71° East 480 552 30,900  Level FlightAware ADS-B
Wed 01:40:57 AM 41.9820 -68.1220 70° East 482 555 30,900  Level FlightAware ADS-B
Wed 01:41:34 AM 42.0060 -68.0290 71° East 480 552 30,900  Level FlightAware ADS-B
Wed 01:42:13 AM 42.0360 -67.9130 71° East 481 554 30,900  Level FlightAware ADS-B
Wed 01:42:50 AM 42.0650 -67.7990 71° East 481 554 30,900  Level FlightAware ADS-B
Wed 01:43:31 AM 42.0910 -67.6990 71° East 480 552 30,900  Level FlightAware ADS-B
Wed 01:44:06 AM 42.1190 -67.5890 71° East 481 554 30,900  Level FlightAware ADS-B
Wed 01:44:38 AM 42.1390 -67.5090 71° East 481 554 30,900  Level FlightAware ADS-B
Wed 01:45:23 AM 42.1700 -67.3830 72° East 481 554 30,900  Level FlightAware ADS-B
Wed 01:46:12 AM 42.2060 -67.2410 71° East 481 554 30,900  Level FlightAware ADS-B
Wed 01:46:49 AM 42.2280 -67.1510 72° East 481 554 30,900  Level FlightAware ADS-B
Wed 01:47:26 AM 42.2500 -67.0610 72° East 481 554 30,900  Level FlightAware ADS-B
Wed 01:48:02 AM 42.2710 -66.9740 72° East 481 554 30,900  Level FlightAware ADS-B
Wed 01:48:38 AM 42.2920 -66.8860 72° East 481 554 30,900  Level FlightAware ADS-B
Wed 01:49:14 AM 42.3130 -66.7990 72° East 481 554 30,900  Level FlightAware ADS-B
Wed 01:49:50 AM 42.3340 -66.7110 70° East 481 554 30,900  Level FlightAware ADS-B
Wed 01:50:26 AM 42.3550 -66.6230 72° East 481 554 30,900  Level FlightAware ADS-B
Wed 01:51:02 AM 42.3760 -66.5360 72° East 481 554 30,900  Level FlightAware ADS-B
Wed 01:51:38 AM 42.3970 -66.4480 72° East 481 554 30,900  Level FlightAware ADS-B
Wed 01:52:14 AM 42.4180 -66.3600 72° East 481 554 30,900  Level FlightAware ADS-B
Wed 01:52:50 AM 42.4390 -66.2730 72° East 481 554 30,900  Level FlightAware ADS-B
Wed 01:53:26 AM 42.4600 -66.1850 72° East 481 554 30,900  Level FlightAware ADS-B
Wed 01:54:03 AM 42.4820 -66.0950 72° East 481 554 30,900  Level FlightAware ADS-B
Wed 01:54:39 AM 42.5030 -66.0070 72° East 481 554 30,900  Level FlightAware ADS-B
Wed 01:55:15 AM 42.5240 -65.9190 72° East 481 554 30,900  Level FlightAware ADS-B
Wed 01:56:05 AM 42.6333 -65.5167 72° East 480 552 30,900  Level Moncton Center
Wed 01:57:05 AM 42.6667 -65.3333 76° East 480 552 30,900  Level Moncton Center
Wed 01:58:05 AM 42.7167 -65.1667 68° East 490 564 30,900  Level Moncton Center
Wed 01:59:05 AM 42.7500 -64.9833 76° East 480 552 30,900  Level Moncton Center
Wed 02:05:08 AM 43.0120 -63.9390 76° East 489 563 30,900  Level FlightAware ADS-B
Wed 02:05:42 AM 43.0350 -63.8380 73° East 490 564 30,900  Level FlightAware ADS-B
Wed 02:06:17 AM 43.0560 -63.7440 73° East 489 563 30,900  Level FlightAware ADS-B
Wed 02:06:56 AM 43.0850 -63.6170 73° East 489 563 30,900  Level FlightAware ADS-B
Wed 02:07:32 AM 43.1080 -63.5130 73° East 489 563 30,900  Level FlightAware ADS-B
Wed 02:08:13 AM 43.1330 -63.4010 73° East 489 563 30,900  Level FlightAware ADS-B
Wed 02:09:02 AM 43.1680 -63.2440 73° East 488 562 30,900  Level FlightAware ADS-B
Wed 02:09:33 AM 43.1860 -63.1590 74° East 488 562 30,900  Level FlightAware ADS-B
Wed 02:10:20 AM 43.2130 -63.0370 73° East 487 560 30,900  Level FlightAware ADS-B
Wed 02:10:56 AM 43.2320 -62.9460 74° East 487 560 30,900  Level FlightAware ADS-B
Wed 02:11:33 AM 43.2620 -62.8130 73° East 486 559 30,900  Level FlightAware ADS-B
Wed 02:12:20 AM 43.2910 -62.6740 74° East 486 559 30,900  Level FlightAware ADS-B
Wed 02:12:52 AM 43.3110 -62.5800 74° East 486 559 30,900  Level FlightAware ADS-B
Wed 02:13:28 AM 43.3300 -62.4890 74° East 486 559 30,900  Level FlightAware ADS-B
Wed 02:14:04 AM 43.3490 -62.3980 74° East 486 559 30,900  Level FlightAware ADS-B
Wed 02:14:40 AM 43.3680 -62.3070 74° East 486 559 30,900 771 Level FlightAware ADS-B
Wed 02:15:14 AM 43.4030 -62.1470 73° East 487 560 31,800 750 Climbing FlightAware ADS-B
Wed 02:15:52 AM 43.4230 -62.0510 74° East 487 560 31,800 1,000 Level FlightAware ADS-B
Wed 02:16:20 AM 43.4420 -61.9600 74° East 485 558 32,900 917 Climbing FlightAware ADS-B
Wed 02:17:04 AM 43.4680 -61.8350 74° East 484 557 32,900  Level FlightAware ADS-B
Wed 02:17:45 AM 43.4930 -61.7140 74° East 482 555 32,900  Level FlightAware ADS-B
Wed 02:18:23 AM 43.5190 -61.5860 74° East 478 550 32,900  Level FlightAware ADS-B
Wed 02:19:14 AM 43.5430 -61.4660 75° East 478 550 32,900  Level FlightAware ADS-B
Wed 02:19:50 AM 43.5620 -61.3760 74° East 478 550 32,900  Level FlightAware ADS-B
Wed 02:20:26 AM 43.5810 -61.2860 74° East 478 550 32,900  Level FlightAware ADS-B
Wed 02:21:02 AM 43.5990 -61.1970 74° East 478 550 32,900  Level FlightAware ADS-B
Wed 02:21:39 AM 43.6190 -61.1040 73° East 478 550 32,900  Level FlightAware ADS-B
Wed 02:22:16 AM 43.6380 -61.0120 74° East 478 550 32,900  Level FlightAware ADS-B
Wed 02:22:52 AM 43.6560 -60.9220 75° East 478 550 32,900  Level FlightAware ADS-B
Wed 02:23:28 AM 43.6750 -60.8320 74° East 478 550 32,900  Level FlightAware ADS-B
Wed 02:24:04 AM 43.6940 -60.7420 74° East 478 550 32,900  Level FlightAware ADS-B
Wed 02:24:40 AM 43.7120 -60.6520 75° East 478 550 32,900  Level FlightAware ADS-B
Wed 02:25:16 AM 43.7310 -60.5620 74° East 478 550 32,900  Level FlightAware ADS-B
Wed 02:25:52 AM 43.7500 -60.4720 74° East 478 550 32,900  Level FlightAware ADS-B
Wed 02:26:29 AM 43.7690 -60.3800 74° East 478 550 32,900  Level FlightAware ADS-B
Wed 02:27:05 AM 43.7870 -60.2890 75° East 478 550 32,900  Level FlightAware ADS-B
Wed 02:27:41 AM 43.8060 -60.1990 74° East 478 550 32,900  Level FlightAware ADS-B
Wed 02:28:17 AM 43.8250 -60.1090 74° East 478 550 32,900  Level FlightAware ADS-B
Wed 02:33:02 AM 44.0070 -59.0230 77° East 475 547 32,900  Level FlightAware ADS-B
Wed 02:33:37 AM 44.0230 -58.9330 76° East 475 547 32,900  Level FlightAware ADS-B
Wed 02:34:13 AM 44.0390 -58.8430 76° East 475 547 32,900  Level FlightAware ADS-B
Wed 02:34:49 AM 44.0550 -58.7520 76° East 475 547 32,900  Level FlightAware ADS-B
Wed 02:35:33 AM 44.0830 -58.5930 76° East 478 550 32,900  Level FlightAware ADS-B
Wed 02:36:04 AM 44.1010 -58.4880 77° East 479 551 32,900  Level FlightAware ADS-B
Wed 02:36:41 AM 44.1180 -58.3930 76° East 479 551 32,900  Level FlightAware ADS-B
Wed 02:37:16 AM 44.1380 -58.2690 77° East 478 550 32,900  Level FlightAware ADS-B
Wed 02:37:54 AM 44.1560 -58.1680 76° East 479 551 32,900  Level FlightAware ADS-B
Wed 02:38:28 AM 44.1750 -58.0530 77° East 479 551 32,900  Level FlightAware ADS-B
Wed 02:39:00 AM 44.1910 -57.9540 77° East 480 552 32,900  Level FlightAware ADS-B
Wed 02:39:37 AM 44.2090 -57.8480 77° East 482 555 32,900  Level FlightAware ADS-B
Wed 02:40:09 AM 44.2260 -57.7480 77° East 482 555 32,900  Level FlightAware ADS-B
Wed 02:40:46 AM 44.2410 -57.6530 78° East 482 555 32,900  Level FlightAware ADS-B
Wed 02:41:21 AM 44.2610 -57.5300 77° East 483 556 32,900  Level FlightAware ADS-B
Wed 02:41:55 AM 44.2770 -57.4350 77° East 483 556 32,900  Level FlightAware ADS-B
Wed 02:42:32 AM 44.2950 -57.3260 77° East 483 556 32,900  Level FlightAware ADS-B
Wed 02:43:07 AM 44.3140 -57.2060 77° East 487 560 32,900  Level FlightAware ADS-B
Wed 02:43:48 AM 44.3310 -57.1000 77° East 487 560 32,900  Level FlightAware ADS-B
Wed 02:44:24 AM 44.3470 -57.0070 76° East 487 560 32,900  Level FlightAware ADS-B
Wed 02:45:00 AM 44.3620 -56.9130 77° East 487 560 32,900  Level FlightAware ADS-B
Wed 02:45:36 AM 44.3780 -56.8190 77° East 487 560 32,900  Level FlightAware ADS-B
Wed 02:46:12 AM 44.3930 -56.7250 77° East 487 560 32,900  Level FlightAware ADS-B
Wed 02:46:48 AM 44.4090 -56.6310 77° East 487 560 32,900  Level FlightAware ADS-B
Wed 02:47:24 AM 44.4240 -56.5360 78° East 487 560 32,900  Level FlightAware ADS-B
Wed 02:48:00 AM 44.4400 -56.4420 77° East 487 560 32,900  Level FlightAware ADS-B
Wed 02:48:36 AM 44.4550 -56.3480 77° East 487 560 32,900  Level FlightAware ADS-B
Wed 02:49:12 AM 44.4710 -56.2540 77° East 487 560 32,900  Level FlightAware ADS-B
Wed 02:49:48 AM 44.4860 -56.1600 77° East 487 560 32,900  Level FlightAware ADS-B
Wed 02:50:25 AM 44.5020 -56.0630 77° East 487 560 32,900  Level FlightAware ADS-B
Wed 02:51:01 AM 44.5180 -55.9690 77° East 487 560 32,900  Level FlightAware ADS-B
Wed 02:51:37 AM 44.5330 -55.8750 77° East 487 560 32,900  Level FlightAware ADS-B
Wed 02:52:13 AM 44.5490 -55.7810 77° East 487 560 32,900  Level FlightAware ADS-B
Wed 02:52:49 AM 44.5640 -55.6860 77° East 487 560 32,900  Level FlightAware ADS-B
Wed 02:53:56 AM 44.5500 -55.1500 77° East 490 564 32,900  Level Gander Center
Wed 02:54:56 AM 44.6000 -54.9667 69° East 490 564 32,900  Level Gander Center
Wed 02:55:56 AM 44.6000 -54.7667 90° East 490 564 32,900  Level Gander Center
Wed 02:56:56 AM 44.6167 -54.5667 83° East 500 575 32,900  Level Gander Center
Wed 02:57:56 AM 44.6333 -54.4000 82° East 490 564 32,900  Level Gander Center
Wed 02:58:56 AM 44.6667 -54.1833 78° East 490 564 32,900  Level Gander Center
Wed 02:59:56 AM 44.6833 -54.0167 82° East 490 564 32,900  Level Gander Center
Wed 03:00:56 AM 44.7000 -53.8167 83° East 500 575 32,900  Level Gander Center
Wed 03:01:56 AM 44.7000 -53.6000 90° East 510 587 32,900  Level Gander Center
Wed 03:02:56 AM 44.7167 -53.4167 83° East 500 575 32,900  Level Gander Center
Wed 03:03:56 AM 44.7500 -53.2333 76° East 500 575 32,900  Level Gander Center
Wed 03:04:56 AM 44.7667 -53.0333 83° East 500 575 32,900  Level Gander Center
Wed 03:05:56 AM 44.7833 -52.8167 84° East 510 587 32,900  Level Gander Center
Wed 03:06:56 AM 44.8000 -52.6333 83° East 510 587 32,900  Level Gander Center
Wed 03:07:56 AM 44.8167 -52.4333 83° East 510 587 32,900  Level Gander Center
Wed 03:08:56 AM 44.8333 -52.2167 84° East 520 598 32,900  Level Gander Center
Wed 03:09:56 AM 44.8500 -52.0500 82° East 510 587 32,900  Level Gander Center
Wed 03:10:56 AM 44.8667 -51.8333 84° East 510 587 32,900  Level Gander Center
Wed 03:11:56 AM 44.8667 -51.6500 90° East 520 598 32,900  Level Gander Center
Wed 03:12:56 AM 44.8833 -51.4333 84° East 510 587 32,900  Level Gander Center
Wed 03:13:56 AM 44.9000 -51.2500 83° East 520 598 32,900  Level Gander Center
Wed 03:14:56 AM 44.9167 -51.0500 83° East 520 598 32,900  Level Gander Center
Wed 03:15:56 AM 44.9167 -50.8333 90° East 520 598 32,900  Level Gander Center
Wed 03:16:56 AM 44.9333 -50.6500 83° East 520 598 32,900  Level Gander Center
Wed 03:17:56 AM 44.9500 -50.4333 84° East 520 598 32,900  Level Gander Center
Wed 03:18:56 AM 44.9667 -50.2167 84° East 530 610 32,900  Level Gander Center
Wed 03:19:56 AM 44.9667 -50.0167 90° East 530 610 32,900 23 Level Gander Center
Wed 03:21:00 AM 45.0193 -49.8204 71° East  Level Estimated
Wed 03:28:00 AM 45.3566 -48.5236 71° East  Level Estimated
Wed 03:29:00 AM 45.3986 -48.3347 72° East  Level FlightAware Approximate
Wed 03:30:00 AM 45.4402 -48.1456 73° East  Level FlightAware Approximate
Wed 03:31:00 AM 45.4816 -47.9561 73° East  Level FlightAware Approximate
Wed 03:32:00 AM 45.5226 -47.7664 73° East  Level FlightAware Approximate
Wed 03:33:00 AM 45.5684 -47.5787 72° East  Level Estimated
Wed 03:34:00 AM 45.6113 -47.3895 72° East  Level FlightAware Approximate
Wed 03:35:00 AM 45.6538 -47.2000 72° East  Level FlightAware Approximate
Wed 03:36:00 AM 45.6960 -47.0103 72° East  Level FlightAware Approximate
Wed 03:37:00 AM 45.7380 -46.8202 72° East  Level FlightAware Approximate
Wed 03:38:00 AM 45.7796 -46.6298 73° East  Level FlightAware Approximate
Wed 03:39:00 AM 45.8209 -46.4392 73° East  Level FlightAware Approximate
Wed 03:40:00 AM 45.8618 -46.2483 73° East  Level FlightAware Approximate
Wed 03:41:00 AM 45.9025 -46.0571 73° East  Level FlightAware Approximate
Wed 03:42:00 AM 45.9428 -45.8657 73° East  Level FlightAware Approximate
Wed 03:43:00 AM 45.9829 -45.6739 73° East  Level FlightAware Approximate
Wed 03:44:00 AM 46.0226 -45.4819 73° East  Level FlightAware Approximate
Wed 03:45:00 AM 46.0619 -45.2896 73° East  Level FlightAware Approximate
Wed 03:46:00 AM 46.1010 -45.0970 74° East  Level FlightAware Approximate
Wed 03:47:00 AM 46.1397 -44.9041 74° East  Level FlightAware Approximate
Wed 03:48:00 AM 46.1781 -44.7110 74° East  Level FlightAware Approximate
Wed 03:49:00 AM 46.2162 -44.5176 74° East  Level FlightAware Approximate
Wed 03:50:00 AM 46.2539 -44.3240 74° East  Level FlightAware Approximate
Wed 03:51:00 AM 46.2914 -44.1301 74° East  Level FlightAware Approximate
Wed 03:52:00 AM 46.3284 -43.9359 74° East  Level FlightAware Approximate
Wed 03:53:00 AM 46.3652 -43.7415 75° East  Level FlightAware Approximate
Wed 03:54:00 AM 46.4016 -43.5467 75° East  Level FlightAware Approximate
Wed 03:55:00 AM 46.4377 -43.3518 75° East  Level FlightAware Approximate
Wed 03:56:00 AM 46.4735 -43.1566 75° East  Level FlightAware Approximate
Wed 03:57:00 AM 46.5089 -42.9611 75° East  Level FlightAware Approximate
Wed 03:58:00 AM 46.5441 -42.7654 75° East  Level FlightAware Approximate
Wed 03:59:00 AM 46.5788 -42.5694 75° East  Level FlightAware Approximate
Wed 04:00:00 AM 46.6133 -42.3731 76° East  Level FlightAware Approximate
Wed 04:01:00 AM 46.6474 -42.1767 76° East  Level FlightAware Approximate
Wed 04:02:00 AM 46.6811 -41.9799 76° East  Level FlightAware Approximate
Wed 04:03:00 AM 46.7146 -41.7830 76° East  Level FlightAware Approximate
Wed 04:04:00 AM 46.7477 -41.5857 76° East  Level FlightAware Approximate
Wed 04:05:00 AM 46.7804 -41.3883 76° East  Level FlightAware Approximate
Wed 04:06:00 AM 46.8128 -41.1906 76° East  Level FlightAware Approximate
Wed 04:07:00 AM 46.8449 -40.9926 77° East  Level FlightAware Approximate
Wed 04:08:00 AM 46.8766 -40.7945 77° East  Level FlightAware Approximate
Wed 04:09:00 AM 46.9080 -40.5961 77° East  Level FlightAware Approximate
Wed 04:10:00 AM 46.9390 -40.3974 77° East  Level FlightAware Approximate
Wed 04:11:00 AM 46.9697 -40.1986 77° East  Level FlightAware Approximate
Wed 04:12:00 AM 47.0029 -40.0005 70° East  Level Estimated
Wed 04:13:00 AM 47.0501 -39.8084 70° East  Level FlightAware Approximate
Wed 04:14:00 AM 47.0969 -39.6160 70° East  Level FlightAware Approximate
Wed 04:15:00 AM 47.1435 -39.4233 70° East  Level FlightAware Approximate
Wed 04:16:00 AM 47.1897 -39.2302 71° East  Level FlightAware Approximate
Wed 04:17:00 AM 47.2356 -39.0368 71° East  Level FlightAware Approximate
Wed 04:18:00 AM 47.2812 -38.8430 71° East  Level FlightAware Approximate
Wed 04:19:00 AM 47.3264 -38.6489 71° East  Level FlightAware Approximate
Wed 04:20:00 AM 47.3713 -38.4545 71° East  Level FlightAware Approximate
Wed 04:21:00 AM 47.4159 -38.2598 71° East  Level FlightAware Approximate
Wed 04:22:00 AM 47.4455 -38.0588 71° East  Level Estimated
Wed 04:23:00 AM 47.4925 -37.8650 70° East  Level FlightAware Approximate
Wed 04:24:00 AM 47.5392 -37.6709 70° East  Level FlightAware Approximate
Wed 04:25:00 AM 47.5856 -37.4765 70° East  Level FlightAware Approximate
Wed 04:26:00 AM 47.6317 -37.2817 71° East  Level FlightAware Approximate
Wed 04:27:00 AM 47.6774 -37.0865 71° East  Level FlightAware Approximate
Wed 04:28:00 AM 47.7228 -36.8910 71° East  Level FlightAware Approximate
Wed 04:29:00 AM 47.7678 -36.6952 71° East  Level FlightAware Approximate
Wed 04:30:00 AM 47.8125 -36.4991 71° East  Level FlightAware Approximate
Wed 04:31:00 AM 47.8388 -36.2955 72° East  Level Estimated
Wed 04:32:00 AM 47.8820 -36.0983 72° East  Level FlightAware Approximate
Wed 04:33:00 AM 47.9249 -35.9009 72° East  Level FlightAware Approximate
Wed 04:34:00 AM 47.9675 -35.7031 72° East  Level FlightAware Approximate
Wed 04:35:00 AM 48.0098 -35.5049 72° East  Level FlightAware Approximate
Wed 04:36:00 AM 48.0517 -35.3065 72° East  Level FlightAware Approximate
Wed 04:37:00 AM 48.0932 -35.1077 73° East  Level FlightAware Approximate
Wed 04:38:00 AM 48.1344 -34.9086 73° East  Level FlightAware Approximate
Wed 04:39:00 AM 48.1753 -34.7092 73° East  Level FlightAware Approximate
Wed 04:40:00 AM 48.2158 -34.5095 73° East  Level FlightAware Approximate
Wed 04:41:00 AM 48.2560 -34.3094 73° East  Level FlightAware Approximate
Wed 04:42:00 AM 48.2958 -34.1091 73° East  Level FlightAware Approximate
Wed 04:43:00 AM 48.3353 -33.9084 73° East  Level FlightAware Approximate
Wed 04:44:00 AM 48.3566 -33.7015 74° East  Level Estimated
Wed 04:45:00 AM 48.3951 -33.5001 74° East  Level FlightAware Approximate
Wed 04:46:00 AM 48.4332 -33.2985 74° East  Level FlightAware Approximate
Wed 04:47:00 AM 48.4710 -33.0966 74° East  Level FlightAware Approximate
Wed 04:48:00 AM 48.5084 -32.8943 74° East  Level FlightAware Approximate
Wed 04:49:00 AM 48.5455 -32.6918 74° East  Level FlightAware Approximate
Wed 04:50:00 AM 48.5823 -32.4889 75° East  Level FlightAware Approximate
Wed 04:51:00 AM 48.6186 -32.2858 75° East  Level FlightAware Approximate
Wed 04:52:00 AM 48.6546 -32.0824 75° East  Level FlightAware Approximate
Wed 04:53:00 AM 48.6903 -31.8787 75° East  Level FlightAware Approximate
Wed 04:54:00 AM 48.7256 -31.6747 75° East  Level FlightAware Approximate
Wed 04:55:00 AM 48.7605 -31.4704 75° East  Level FlightAware Approximate
Wed 04:56:00 AM 48.7951 -31.2659 76° East  Level FlightAware Approximate
Wed 04:57:00 AM 48.8293 -31.0610 76° East  Level FlightAware Approximate
Wed 04:58:00 AM 48.8632 -30.8559 76° East  Level FlightAware Approximate
Wed 04:59:00 AM 48.8966 -30.6505 76° East  Level FlightAware Approximate
Wed 05:00:00 AM 48.9298 -30.4448 76° East  Level FlightAware Approximate
Wed 05:01:00 AM 48.9625 -30.2389 76° East  Level FlightAware Approximate
Wed 05:02:00 AM 48.9949 -30.0326 76° East  Level FlightAware Approximate
Wed 05:03:00 AM 49.0085 -29.8215 77° East  Level Estimated
Wed 05:04:00 AM 49.0386 -29.6143 77° East  Level FlightAware Approximate
Wed 05:05:00 AM 49.0682 -29.4069 78° East  Level FlightAware Approximate
Wed 05:06:00 AM 49.0976 -29.1991 78° East  Level FlightAware Approximate
Wed 05:07:00 AM 49.1265 -28.9912 78° East  Level FlightAware Approximate
Wed 05:08:00 AM 49.1551 -28.7830 78° East  Level FlightAware Approximate
Wed 05:09:00 AM 49.1833 -28.5745 78° East  Level FlightAware Approximate
Wed 05:10:00 AM 49.2111 -28.3659 78° East  Level FlightAware Approximate
Wed 05:11:00 AM 49.2385 -28.1570 79° East  Level FlightAware Approximate
Wed 05:12:00 AM 49.2656 -27.9478 79° East  Level FlightAware Approximate
Wed 05:13:00 AM 49.2923 -27.7385 79° East  Level FlightAware Approximate
Wed 05:14:00 AM 49.3186 -27.5289 79° East  Level FlightAware Approximate
Wed 05:15:00 AM 49.3446 -27.3191 79° East  Level FlightAware Approximate
Wed 05:16:00 AM 49.3701 -27.1090 79° East  Level FlightAware Approximate
Wed 05:17:00 AM 49.3953 -26.8988 79° East  Level FlightAware Approximate
Wed 05:18:00 AM 49.4201 -26.6883 80° East  Level FlightAware Approximate
Wed 05:19:00 AM 49.4445 -26.4776 80° East  Level FlightAware Approximate
Wed 05:20:00 AM 49.4685 -26.2668 80° East  Level FlightAware Approximate
Wed 05:21:00 AM 49.4921 -26.0557 80° East  Level FlightAware Approximate
Wed 05:22:00 AM 49.5154 -25.8444 80° East  Level FlightAware Approximate
Wed 05:23:00 AM 49.5383 -25.6329 80° East  Level FlightAware Approximate
Wed 05:24:00 AM 49.5607 -25.4212 81° East  Level FlightAware Approximate
Wed 05:25:00 AM 49.5828 -25.2093 81° East  Level FlightAware Approximate
Wed 05:26:00 AM 49.6045 -24.9973 81° East  Level FlightAware Approximate
Wed 05:27:00 AM 49.6259 -24.7850 81° East  Level FlightAware Approximate
Wed 05:28:00 AM 49.6468 -24.5726 81° East  Level FlightAware Approximate
Wed 05:29:00 AM 49.6674 -24.3599 81° East  Level FlightAware Approximate
Wed 05:30:00 AM 49.6875 -24.1472 82° East  Level FlightAware Approximate
Wed 05:31:00 AM 49.7073 -23.9342 82° East  Level FlightAware Approximate
Wed 05:32:00 AM 49.7267 -23.7210 82° East  Level FlightAware Approximate
Wed 05:33:00 AM 49.7456 -23.5077 82° East  Level FlightAware Approximate
Wed 05:34:00 AM 49.7642 -23.2942 82° East  Level FlightAware Approximate
Wed 05:35:00 AM 49.7824 -23.0806 82° East  Level FlightAware Approximate
Wed 05:36:00 AM 49.8003 -22.8664 83° East  Level FlightAware Approximate
Wed 05:37:00 AM 49.8177 -22.6521 83° East  Level FlightAware Approximate
Wed 05:38:00 AM 49.8348 -22.4377 83° East  Level FlightAware Approximate
Wed 05:39:00 AM 49.8514 -22.2230 83° East  Level FlightAware Approximate
Wed 05:40:00 AM 49.8677 -22.0083 83° East  Level FlightAware Approximate
Wed 05:41:00 AM 49.8835 -21.7934 83° East  Level FlightAware Approximate
Wed 05:42:00 AM 49.8990 -21.5783 84° East  Level FlightAware Approximate
Wed 05:43:00 AM 49.9140 -21.3631 84° East  Level FlightAware Approximate
Wed 05:44:00 AM 49.9287 -21.1478 84° East  Level FlightAware Approximate
Wed 05:45:00 AM 49.9430 -20.9324 84° East  Level FlightAware Approximate
Wed 05:46:00 AM 49.9568 -20.7168 84° East  Level FlightAware Approximate
Wed 05:47:00 AM 49.9703 -20.5011 84° East  Level FlightAware Approximate
Wed 05:48:00 AM 49.9833 -20.2853 85° East  Level FlightAware Approximate
Wed 05:49:00 AM 49.9960 -20.0694 85° East  Level FlightAware Approximate
Wed 05:50:00 AM 49.9893 -19.8528 93° East  Level Estimated
Wed 05:51:00 AM 49.9823 -19.6362 93° East  Level FlightAware Approximate
Wed 05:52:00 AM 49.9748 -19.4198 93° East  Level FlightAware Approximate
Wed 05:53:00 AM 49.9669 -19.2034 93° East  Level FlightAware Approximate
Wed 05:54:00 AM 49.9587 -18.9871 93° East  Level FlightAware Approximate
Wed 05:55:00 AM 49.9500 -18.7708 93° East  Level FlightAware Approximate
Wed 05:56:00 AM 49.9409 -18.5547 94° East  Level FlightAware Approximate
Wed 05:57:00 AM 49.9315 -18.3386 94° East  Level FlightAware Approximate
Wed 05:58:00 AM 49.9216 -18.1226 94° East  Level FlightAware Approximate
Wed 05:59:00 AM 49.9113 -17.9070 94° East  Level FlightAware Approximate
Wed 06:00:00 AM 49.9007 -17.6916 94° East  Level FlightAware Approximate
Wed 06:01:00 AM 49.8896 -17.4762 94° East  Level FlightAware Approximate
Wed 06:02:00 AM 49.8782 -17.2610 95° East  Level FlightAware Approximate
Wed 06:03:00 AM 49.8663 -17.0459 95° East  Level FlightAware Approximate
Wed 06:04:00 AM 49.8541 -16.8308 95° East  Level FlightAware Approximate
Wed 06:05:00 AM 49.8414 -16.6159 95° East  Level FlightAware Approximate
Wed 06:06:00 AM 49.8284 -16.4011 95° East  Level FlightAware Approximate
Wed 06:07:00 AM 49.8149 -16.1864 95° East  Level FlightAware Approximate
Wed 06:08:00 AM 49.8011 -15.9718 96° East  Level FlightAware Approximate
Wed 06:09:00 AM 49.7868 -15.7573 96° East  Level FlightAware Approximate
Wed 06:10:00 AM 49.7722 -15.5430 96° East  Level FlightAware Approximate
Wed 06:11:00 AM 49.7572 -15.3288 96° East  Level FlightAware Approximate
Wed 06:12:00 AM 49.7418 -15.1147 96° East  Level FlightAware Approximate
Wed 06:13:00 AM 49.7259 -14.9008 97° East  Level Estimated
Wed 06:14:00 AM 49.7090 -14.6872 97° East  Level FlightAware Approximate
Wed 06:15:00 AM 49.6916 -14.4737 97° East  Level FlightAware Approximate
Wed 06:16:00 AM 49.6739 -14.2604 97° East  Level FlightAware Approximate
Wed 06:17:00 AM 49.6557 -14.0472 97° East  Level FlightAware Approximate
Wed 06:17:40 AM 49.4730 -10.6730 98° East 514 592 37,000  Level FlightAware ADS-B
Wed 06:18:00 AM 49.6372 -13.8342 98° East  Level FlightAware Approximate
Wed 06:18:20 AM 49.4570 -10.5510 101° East 514 592 37,000  Level FlightAware ADS-B
Wed 06:18:57 AM 49.4410 -10.4390 102° East 514 592 37,000 -67 Level FlightAware ADS-B
Wed 06:19:49 AM 49.4090 -10.2280 103° East 518 596 36,900 -71 Descending FlightAware ADS-B
Wed 06:20:21 AM 49.3890 -10.1010 104° East 518 596 36,900 81 Level FlightAware ADS-B
Wed 06:21:03 AM 49.3660 -9.9470 103° East 518 596 37,000  Climbing FlightAware ADS-B
Wed 06:21:35 AM 49.3480 -9.8290 103° East 518 596 36,900  Descending FlightAware ADS-B
Wed 06:22:05 AM 49.3320 -9.7260 103° East 519 597 37,000 76 Climbing FlightAware ADS-B
Wed 06:22:54 AM 49.3100 -9.5760 103° East 519 597 37,000  Level FlightAware ADS-B
Wed 06:23:28 AM 49.2850 -9.4210 104° East 522 601 37,000  Level FlightAware ADS-B
Wed 06:24:14 AM 49.2620 -9.2770 104° East 522 601 37,000  Level FlightAware ADS-B
Wed 06:24:50 AM 49.2460 -9.1660 102° East 522 601 37,000 -83 Level FlightAware ADS-B
Wed 06:25:26 AM 49.2146 -8.9945 102° East 490 564 36,900 -154 Descending FlightAware UK
Wed 06:25:29 AM 49.2170 -8.9940 102° East 524 603 36,900  Level FlightAware ADS-B
Wed 06:26:05 AM 49.1950 -8.8610 104° East 524 603 36,900  Level FlightAware ADS-B
Wed 06:26:37 AM 49.1770 -8.7460 103° East 525 604 36,900  Level FlightAware ADS-B
Wed 06:27:13 AM 49.1550 -8.6130 104° East 526 605 36,900  Level FlightAware ADS-B
Wed 06:27:49 AM 49.1340 -8.4860 104° East 527 606 36,900 86 Level FlightAware ADS-B
Wed 06:28:23 AM 49.1140 -8.3640 104° East 527 606 37,000  Climbing FlightAware ADS-B
Wed 06:28:56 AM 49.0938 -8.2419 104° East 490 564 36,900 -167 Descending FlightAware UK
Wed 06:28:59 AM 49.0920 -8.2350 104° East 527 606 36,900 158 Level FlightAware ADS-B
Wed 06:29:34 AM 49.0700 -8.1050 104° East 528 608 37,000  Climbing FlightAware ADS-B
Wed 06:30:07 AM 49.0500 -7.9900 105° East 529 609 36,900 -87 Descending FlightAware ADS-B
Wed 06:30:43 AM 49.0280 -7.8600 104° East 531 611 36,900  Level FlightAware ADS-B
Wed 06:31:19 AM 49.0060 -7.7300 104° East 531 611 36,900  Level FlightAware ADS-B
Wed 06:31:56 AM 48.9800 -7.5915 104° East 492 566 36,900  Level FlightAware UK
Wed 06:31:59 AM 48.9770 -7.5880 104° East 528 608 36,900  Level FlightAware ADS-B
Wed 06:32:35 AM 48.9470 -7.4620 110° East 526 605 36,900  Level FlightAware ADS-B
Wed 06:33:11 AM 48.9170 -7.3410 111° Southeast 525 604 36,900  Level FlightAware ADS-B
Wed 06:33:43 AM 48.8880 -7.2280 111° Southeast 524 603 36,900  Level FlightAware ADS-B
Wed 06:34:19 AM 48.8550 -7.1010 112° Southeast 524 603 36,900  Level FlightAware ADS-B
Wed 06:34:53 AM 48.8240 -6.9860 112° Southeast 524 603 36,900  Level FlightAware ADS-B
Wed 06:34:56 AM 48.8202 -6.9714 112° Southeast 490 564 36,900  Level FlightAware UK
Wed 06:35:26 AM 48.7950 -6.8730 112° Southeast 523 602 36,900  Level FlightAware ADS-B
Wed 06:35:27 AM 48.7931 -6.8687 112° Southeast 488 562 36,900  Level FlightAware UK
Wed 06:35:57 AM 48.7665 -6.7675 112° Southeast 488 562 36,900  Level FlightAware UK
Wed 06:36:07 AM 48.7590 -6.7400 112° Southeast 523 602 36,900 143 Level FlightAware ADS-B
Wed 06:36:39 AM 48.7300 -6.6280 111° Southeast 523 602 37,000  Climbing FlightAware ADS-B
Wed 06:37:09 AM 48.7020 -6.5236 111° Southeast 490 564 36,900 -167 Descending FlightAware UK
Wed 06:37:15 AM 48.6970 -6.5060 111° Southeast 524 603 36,900  Level FlightAware ADS-B
Wed 06:37:51 AM 48.6650 -6.3840 112° Southeast 524 603 36,900 88 Level FlightAware ADS-B
Wed 06:38:23 AM 48.6360 -6.2760 112° Southeast 524 603 37,000  Climbing FlightAware ADS-B
Wed 06:38:57 AM 48.6033 -6.1573 112° Southeast 490 564 36,900 -167 Descending FlightAware UK
Wed 06:38:59 AM 48.6020 -6.1540 112° Southeast 525 604 36,900  Level FlightAware ADS-B
Wed 06:39:33 AM 48.5701 -6.0355 112° Southeast 490 564 36,900  Level FlightAware UK
Wed 06:39:35 AM 48.5690 -6.0320 112° Southeast 524 603 36,900 171 Level FlightAware ADS-B
Wed 06:40:08 AM 48.5380 -5.9200 112° Southeast 524 603 37,000  Climbing FlightAware ADS-B
Wed 06:40:09 AM 48.5366 -5.9138 112° Southeast 490 564 36,900 -171 Descending FlightAware UK
Wed 06:40:43 AM 48.5050 -5.7990 112° Southeast 525 604 36,900  Level FlightAware ADS-B
Wed 06:40:45 AM 48.5032 -5.7917 112° Southeast 490 564 36,900  Level FlightAware UK
Wed 06:41:15 AM 48.4756 -5.6905 112° Southeast 490 564 36,900  Level FlightAware UK
Wed 06:41:20 AM 48.4710 -5.6740 112° Southeast 525 604 36,900  Level FlightAware ADS-B
Wed 06:41:56 AM 48.4370 -5.5530 113° Southeast 525 604 36,900  Level FlightAware ADS-B
Wed 06:42:28 AM 48.4070 -5.4480 113° Southeast 526 605 36,900 88 Level FlightAware ADS-B
Wed 06:43:04 AM 48.3730 -5.3270 113° Southeast 527 606 37,000  Climbing FlightAware ADS-B
Wed 06:43:40 AM 48.3400 -5.2050 112° Southeast 527 606 36,900 -83 Descending FlightAware ADS-B
Wed 06:44:16 AM 48.3050 -5.0840 113° Southeast 528 608 36,900  Level FlightAware ADS-B
Wed 06:44:48 AM 48.2740 -4.9760 113° Southeast 528 608 36,900  Level FlightAware ADS-B
Wed 06:45:24 AM 48.2390 -4.8520 113° Southeast 529 609 36,900  Level FlightAware ADS-B
Wed 06:46:00 AM 48.2040 -4.7300 113° Southeast 529 609 36,900  Level FlightAware ADS-B
Wed 06:46:32 AM 48.1730 -4.6260 114° Southeast 530 610 36,900  Level FlightAware ADS-B
Wed 06:47:10 AM 48.1360 -4.4950 113° Southeast 529 609 36,900 81 Level FlightAware ADS-B
Wed 06:47:46 AM 48.1010 -4.3740 113° Southeast 531 611 37,000  Climbing FlightAware ADS-B
Wed 06:48:18 AM 48.0700 -4.2700 114° Southeast 532 612 36,900  Descending FlightAware ADS-B
Wed 06:48:54 AM 48.0340 -4.1490 114° Southeast 532 612 37,000 83 Climbing FlightAware ADS-B
Wed 06:49:30 AM 47.9980 -4.0250 113° Southeast 533 613 37,000 -91 Level FlightAware ADS-B
Wed 06:50:00 AM 47.9680 -3.9270 115° Southeast 533 613 36,900 -88 Descending FlightAware ADS-B
Wed 06:50:38 AM 47.9310 -3.8000 113° Southeast 534 615 36,900  Level FlightAware ADS-B
Wed 06:51:06 AM 47.9020 -3.7050 114° Southeast 534 615 36,900 94 Level FlightAware ADS-B
Wed 06:51:42 AM 47.8640 -3.5860 115° Southeast 533 613 37,000  Climbing FlightAware ADS-B
Wed 06:52:14 AM 47.8280 -3.4820 117° Southeast 533 613 36,900 -83 Descending FlightAware ADS-B
Wed 06:52:54 AM 47.7810 -3.3500 118° Southeast 534 615 36,900  Level FlightAware ADS-B
Wed 06:53:26 AM 47.7440 -3.2490 119° Southeast 535 616 36,900  Level FlightAware ADS-B
Wed 06:54:02 AM 47.7020 -3.1320 118° Southeast 536 617 36,900  Level FlightAware ADS-B
Wed 06:54:38 AM 47.6600 -3.0120 117° Southeast 536 617 36,900  Level FlightAware ADS-B
Wed 06:55:14 AM 47.6210 -2.8970 117° Southeast 538 619 36,900 88 Level FlightAware ADS-B
Wed 06:55:46 AM 47.5900 -2.7880 113° Southeast 540 621 37,000 88 Climbing FlightAware ADS-B
Wed 06:56:22 AM 47.5560 -2.6650 112° Southeast 540 621 37,000  Level FlightAware ADS-B
Wed 06:56:54 AM 47.5130 -2.5630 122° Southeast 527 606 37,000 -83 Level FlightAware ADS-B
Wed 06:57:34 AM 47.4470 -2.4650 135° Southeast 521 600 36,900 -83 Descending FlightAware ADS-B
Wed 06:58:06 AM 47.3910 -2.3850 136° Southeast 522 601 36,900  Level FlightAware ADS-B
Wed 06:58:42 AM 47.3310 -2.2930 134° Southeast 526 605 36,900  Level FlightAware ADS-B
Wed 06:59:18 AM 47.2740 -2.1940 130° Southeast 528 608 36,900  Level FlightAware ADS-B
Wed 06:59:52 AM 47.2210 -2.0960 129° Southeast 527 606 36,900  Level FlightAware ADS-B
Wed 07:00:28 AM 47.1680 -1.9980 128° Southeast 528 608 36,900  Level FlightAware ADS-B
Wed 07:01:04 AM 47.1130 -1.8980 129° Southeast 527 606 36,900  Level FlightAware ADS-B
Wed 07:01:36 AM 47.0640 -1.8080 129° Southeast 526 605 36,900  Level FlightAware ADS-B
Wed 07:02:10 AM 47.0120 -1.7140 129° Southeast 526 605 36,900  Level FlightAware ADS-B
Wed 07:02:48 AM 46.9560 -1.6080 128° Southeast 526 605 36,900  Level FlightAware ADS-B
Wed 07:03:22 AM 46.9040 -1.5140 129° Southeast 526 605 36,900 86 Level FlightAware ADS-B
Wed 07:03:58 AM 46.8490 -1.4140 129° Southeast 526 605 37,000  Climbing FlightAware ADS-B
Wed 07:04:34 AM 46.7930 -1.3150 130° Southeast 526 605 36,900 -83 Descending FlightAware ADS-B
Wed 07:05:10 AM 46.7380 -1.2130 128° Southeast 525 604 36,900  Level FlightAware ADS-B
Wed 07:05:42 AM 46.6890 -1.1250 129° Southeast 524 603 36,900  Level FlightAware ADS-B
Wed 07:06:18 AM 46.6350 -1.0290 129° Southeast 525 604 36,900  Level FlightAware ADS-B
Wed 07:06:54 AM 46.5790 -0.9280 129° Southeast 524 603 36,900  Level FlightAware ADS-B
Wed 07:07:26 AM 46.5300 -0.8400 129° Southeast 523 602 36,900  Level FlightAware ADS-B
Wed 07:08:02 AM 46.4750 -0.7450 130° Southeast 523 602 36,900  Level FlightAware ADS-B
Wed 07:08:39 AM 46.4270 -0.6490 126° Southeast 525 604 36,900  Level FlightAware ADS-B
Wed 07:09:09 AM 46.3900 -0.5540 119° Southeast 528 608 36,900 87 Level FlightAware ADS-B
Wed 07:09:48 AM 46.3450 -0.4280 117° Southeast 528 608 37,000  Climbing FlightAware ADS-B
Wed 07:10:23 AM 46.3060 -0.3180 117° Southeast 528 608 36,900  Descending FlightAware ADS-B
Wed 07:10:58 AM 46.2680 -0.2090 117° Southeast 527 606 37,000 86 Climbing FlightAware ADS-B
Wed 07:11:33 AM 46.2280 -0.0990 118° Southeast 527 606 37,000 -86 Level FlightAware ADS-B
Wed 07:12:08 AM 46.1920 0.0120 115° Southeast 527 606 36,900  Descending FlightAware ADS-B
Wed 07:12:43 AM 46.1620 0.1240 111° Southeast 531 611 37,000 78 Climbing FlightAware ADS-B
Wed 07:13:25 AM 46.1290 0.2620 109° East 531 611 37,000  Level FlightAware ADS-B
Wed 07:13:54 AM 46.1060 0.3630 108° East 531 611 37,000 -87 Level FlightAware ADS-B
Wed 07:14:34 AM 46.0730 0.4970 110° East 534 615 36,900 -80 Descending FlightAware ADS-B
Wed 07:15:09 AM 46.0460 0.6150 108° East 534 615 36,900  Level FlightAware ADS-B
Wed 07:15:44 AM 46.0180 0.7350 109° East 533 613 36,900 92 Level FlightAware ADS-B
Wed 07:16:14 AM 45.9950 0.8290 109° East 533 613 37,000  Climbing FlightAware ADS-B
Wed 07:16:59 AM 45.9590 0.9860 108° East 533 613 36,900 -75 Descending FlightAware ADS-B
Wed 07:17:34 AM 45.9300 1.1060 109° East 532 612 36,900  Level FlightAware ADS-B
Wed 07:18:09 AM 45.9040 1.2160 109° East 531 611 36,900  Level FlightAware ADS-B
Wed 07:18:44 AM 45.8750 1.3320 110° East 530 610 36,900  Level FlightAware ADS-B
Wed 07:19:19 AM 45.8480 1.4450 109° East 529 609 36,900  Level FlightAware ADS-B
Wed 07:19:54 AM 45.8170 1.5700 110° East 529 609 36,900  Level FlightAware ADS-B
Wed 07:20:29 AM 45.7910 1.6760 109° East 529 609 36,900  Level FlightAware ADS-B
Wed 07:21:04 AM 45.7640 1.7880 109° East 528 608 36,900  Level FlightAware ADS-B
Wed 07:21:43 AM 45.7280 1.9320 110° East 526 605 36,900 85 Level FlightAware ADS-B
Wed 07:22:15 AM 45.7030 2.0330 109° East 524 603 37,000  Climbing FlightAware ADS-B
Wed 07:22:53 AM 45.6720 2.1570 110° East 524 603 36,900  Descending FlightAware ADS-B
Wed 07:23:25 AM 45.6440 2.2650 110° East 524 603 37,000 87 Climbing FlightAware ADS-B
Wed 07:24:02 AM 45.6150 2.3820 109° East 525 604 37,000  Level FlightAware ADS-B
Wed 07:24:38 AM 45.5850 2.4990 110° East 525 604 37,000 -85 Level FlightAware ADS-B
Wed 07:25:13 AM 45.5550 2.6130 111° Southeast 525 604 36,900  Descending FlightAware ADS-B
Wed 07:25:49 AM 45.5260 2.7300 109° East 526 605 37,000 71 Climbing FlightAware ADS-B
Wed 07:26:38 AM 45.4830 2.8890 111° Southeast 525 604 37,000 -74 Level FlightAware ADS-B
Wed 07:27:10 AM 45.4550 2.9920 111° Southeast 524 603 36,900  Descending FlightAware ADS-B
Wed 07:27:44 AM 45.4250 3.1050 111° Southeast 525 604 37,000  Climbing FlightAware ADS-B
Wed 07:28:15 AM 45.3990 3.1980 112° Southeast 525 604 36,900  Descending FlightAware ADS-B
Wed 07:28:54 AM 45.3650 3.3230 111° Southeast 526 605 37,000 80 Climbing FlightAware ADS-B
Wed 07:29:30 AM 45.3320 3.4420 111° Southeast 526 605 37,000 -81 Level FlightAware ADS-B
Wed 07:30:08 AM 45.2980 3.5640 112° Southeast 525 604 36,900 -86 Descending FlightAware ADS-B
Wed 07:30:40 AM 45.2710 3.6630 111° Southeast 526 605 36,900  Level FlightAware ADS-B
Wed 07:31:16 AM 45.2380 3.7820 111° Southeast 525 604 36,900 83 Level FlightAware ADS-B
Wed 07:31:52 AM 45.2030 3.9000 113° Southeast 526 605 37,000 91 Climbing FlightAware ADS-B
Wed 07:32:22 AM 45.1700 3.9910 117° Southeast 526 605 37,000 -88 Level FlightAware ADS-B
Wed 07:33:00 AM 45.1200 4.0990 123° Southeast 526 605 36,900  Descending FlightAware ADS-B
Wed 07:33:32 AM 45.0780 4.1940 122° Southeast 525 604 37,000  Climbing FlightAware ADS-B
Wed 07:34:09 AM 45.0290 4.2970 124° Southeast 526 605 36,900 -81 Descending FlightAware ADS-B
Wed 07:34:46 AM 44.9790 4.4020 124° Southeast 525 604 36,900 85 Level FlightAware ADS-B
Wed 07:35:20 AM 44.9330 4.4990 124° Southeast 524 603 37,000  Climbing FlightAware ADS-B
Wed 07:35:56 AM 44.8840 4.6010 124° Southeast 524 603 36,900 -83 Descending FlightAware ADS-B
Wed 07:36:32 AM 44.8370 4.7030 123° Southeast 523 602 36,900  Level FlightAware ADS-B
Wed 07:37:04 AM 44.7940 4.7910 125° Southeast 523 602 36,900  Level FlightAware ADS-B
Wed 07:37:41 AM 44.7440 4.8950 124° Southeast 522 601 36,900  Level FlightAware ADS-B
Wed 07:38:16 AM 44.7000 4.9970 121° Southeast 522 601 36,900 90 Level FlightAware ADS-B
Wed 07:38:48 AM 44.6580 5.0950 121° Southeast 522 601 37,000  Climbing FlightAware ADS-B
Wed 07:39:27 AM 44.6100 5.2050 121° Southeast 522 601 36,900 -83 Descending FlightAware ADS-B
Wed 07:40:00 AM 44.5690 5.2970 122° Southeast 521 600 36,900  Level FlightAware ADS-B
Wed 07:40:36 AM 44.5210 5.4060 122° Southeast 521 600 36,900  Level FlightAware ADS-B
Wed 07:41:06 AM 44.4830 5.4910 122° Southeast 520 598 36,900 87 Level FlightAware ADS-B
Wed 07:41:45 AM 44.4340 5.5990 122° Southeast 519 597 37,000  Climbing FlightAware ADS-B
Wed 07:42:20 AM 44.3900 5.6960 122° Southeast 519 597 36,900 -85 Descending FlightAware ADS-B
Wed 07:42:56 AM 44.3430 5.8010 122° Southeast 518 596 36,900 86 Level FlightAware ADS-B
Wed 07:43:30 AM 44.2990 5.8970 123° Southeast 518 596 37,000 88 Climbing FlightAware ADS-B
Wed 07:44:04 AM 44.2560 5.9930 122° Southeast 518 596 37,000 -83 Level FlightAware ADS-B
Wed 07:44:42 AM 44.2070 6.1000 123° Southeast 518 596 36,900  Descending FlightAware ADS-B
Wed 07:45:14 AM 44.1670 6.1900 122° Southeast 519 597 37,000 88 Climbing FlightAware ADS-B
Wed 07:45:50 AM 44.1190 6.2910 123° Southeast 520 598 37,000 -83 Level FlightAware ADS-B
Wed 07:46:26 AM 44.0710 6.3950 123° Southeast 520 598 36,900  Descending FlightAware ADS-B
Wed 07:47:02 AM 44.0240 6.4960 123° Southeast 520 598 37,000 91 Climbing FlightAware ADS-B
Wed 07:47:32 AM 43.9860 6.5780 123° Southeast 520 598 37,000  Level FlightAware ADS-B
Wed 07:48:09 AM 43.9390 6.6790 123° Southeast 521 600 37,000  Level FlightAware ADS-B
Wed 07:48:48 AM 43.8890 6.7890 122° Southeast 521 600 37,000  Level FlightAware ADS-B
Wed 07:49:20 AM 43.8450 6.8820 123° Southeast 523 602 37,000 -88 Level FlightAware ADS-B
Wed 07:49:56 AM 43.7980 6.9860 122° Southeast 523 602 36,900  Descending FlightAware ADS-B
Wed 07:50:32 AM 43.7500 7.0870 123° Southeast 523 602 37,000 88 Climbing FlightAware ADS-B
Wed 07:51:04 AM 43.7080 7.1730 124° Southeast 523 602 37,000 -88 Level FlightAware ADS-B
Wed 07:51:40 AM 43.6600 7.2740 123° Southeast 522 601 36,900  Descending FlightAware ADS-B
Wed 07:52:14 AM 43.6160 7.3680 123° Southeast 522 601 37,000  Climbing FlightAware ADS-B
Wed 07:52:50 AM 43.5690 7.4650 124° Southeast 522 601 36,900  Descending FlightAware ADS-B
Wed 07:53:26 AM 43.5200 7.5680 123° Southeast 522 601 37,000  Climbing FlightAware ADS-B
Wed 07:54:01 AM 43.4730 7.6650 124° Southeast 521 600 36,900  Descending FlightAware ADS-B
Wed 07:54:38 AM 43.4240 7.7670 123° Southeast 520 598 37,000 87 Climbing FlightAware ADS-B
Wed 07:55:10 AM 43.3810 7.8550 124° Southeast 520 598 37,000 -87 Level FlightAware ADS-B
Wed 07:55:47 AM 43.3320 7.9570 123° Southeast 520 598 36,900  Descending FlightAware ADS-B
Wed 07:56:22 AM 43.2840 8.0550 124° Southeast 519 597 37,000  Climbing FlightAware ADS-B
Wed 07:56:55 AM 43.2400 8.1430 124° Southeast 518 596 36,900 -90 Descending FlightAware ADS-B
Wed 07:57:29 AM 43.1940 8.2380 124° Southeast 518 596 36,900  Level FlightAware ADS-B
Wed 07:58:06 AM 43.1450 8.3390 124° Southeast 519 597 36,900 86 Level FlightAware ADS-B
Wed 07:58:39 AM 43.1030 8.4230 124° Southeast 518 596 37,000 86 Climbing FlightAware ADS-B
Wed 07:59:16 AM 43.0530 8.5230 124° Southeast 517 595 37,000 -87 Level FlightAware ADS-B
Wed 07:59:48 AM 43.0080 8.6150 124° Southeast 516 594 36,900 -87 Descending FlightAware ADS-B
Wed 08:00:25 AM 42.9600 8.7120 124° Southeast 515 593 36,900 82 Level FlightAware ADS-B
Wed 08:01:01 AM 42.9130 8.8060 124° Southeast 514 592 37,000 83 Climbing FlightAware ADS-B
Wed 08:01:37 AM 42.8640 8.9020 125° Southeast 514 592 37,000  Level FlightAware ADS-B
Wed 08:02:11 AM 42.8160 8.9950 125° Southeast 514 592 37,000 -87 Level FlightAware ADS-B
Wed 08:02:46 AM 42.7680 9.0920 124° Southeast 515 593 36,900  Descending FlightAware ADS-B
Wed 08:03:20 AM 42.7240 9.1800 124° Southeast 515 593 37,000 90 Climbing FlightAware ADS-B
Wed 08:03:53 AM 42.6790 9.2680 125° Southeast 516 594 37,000  Level FlightAware ADS-B
Wed 08:04:29 AM 42.6300 9.3630 125° Southeast 516 594 37,000 -83 Level FlightAware ADS-B
Wed 08:05:05 AM 42.5850 9.4620 122° Southeast 513 590 36,900  Descending FlightAware ADS-B
Wed 08:05:41 AM 42.5440 9.5630 119° Southeast 510 587 37,000  Climbing FlightAware ADS-B
Wed 08:06:15 AM 42.5060 9.6590 118° Southeast 510 587 36,900 -88 Descending FlightAware ADS-B
Wed 08:06:49 AM 42.4680 9.7570 118° Southeast 508 585 36,900 86 Level FlightAware ADS-B
Wed 08:07:25 AM 42.4290 9.8560 118° Southeast 508 585 37,000  Climbing FlightAware ADS-B
Wed 08:08:03 AM 42.3880 9.9620 118° Southeast 508 585 36,900  Descending FlightAware ADS-B
Wed 08:08:37 AM 42.3500 10.0580 118° Southeast 509 586 37,000 91 Climbing FlightAware ADS-B
Wed 08:09:09 AM 42.3140 10.1510 118° Southeast 509 586 37,000  Level FlightAware ADS-B
Wed 08:09:45 AM 42.2740 10.2490 119° Southeast 509 586 37,000  Level FlightAware ADS-B
Wed 08:10:19 AM 42.2380 10.3410 118° Southeast 507 583 37,000 -88 Level FlightAware ADS-B
Wed 08:10:53 AM 42.1990 10.4380 118° Southeast 506 582 36,900  Descending FlightAware ADS-B
Wed 08:11:38 AM 42.1510 10.5600 118° Southeast 504 580 37,000 76 Climbing FlightAware ADS-B
Wed 08:12:12 AM 42.1110 10.6530 120° Southeast 509 586 37,000 -88 Level FlightAware ADS-B
Wed 08:12:46 AM 42.0660 10.7420 124° Southeast 512 589 36,900  Descending FlightAware ADS-B
Wed 08:13:23 AM 42.0160 10.8380 125° Southeast 510 587 37,000 86 Climbing FlightAware ADS-B
Wed 08:13:56 AM 41.9710 10.9240 125° Southeast 508 585 37,000  Level FlightAware ADS-B
Wed 08:14:30 AM 41.9260 11.0130 124° Southeast 507 583 37,000  Level FlightAware ADS-B
Wed 08:15:08 AM 41.8760 11.1150 123° Southeast 507 583 37,000 -80 Level FlightAware ADS-B
Wed 08:15:45 AM 41.8290 11.2080 124° Southeast 505 581 36,900  Descending FlightAware ADS-B
Wed 08:16:16 AM 41.7880 11.2890 124° Southeast 504 580 37,000 87 Climbing FlightAware ADS-B
Wed 08:16:54 AM 41.7370 11.3900 124° Southeast 503 579 37,000  Level FlightAware ADS-B
Wed 08:17:30 AM 41.6910 11.4790 125° Southeast 502 578 37,000  Level FlightAware ADS-B
Wed 08:18:02 AM 41.6490 11.5610 124° Southeast 500 575 37,000  Level FlightAware ADS-B
Wed 08:18:40 AM 41.5990 11.6580 125° Southeast 499 574 37,000  Level FlightAware ADS-B
Wed 08:19:14 AM 41.5550 11.7440 124° Southeast 499 574 37,000  Level FlightAware ADS-B
Wed 08:19:49 AM 41.5100 11.8330 124° Southeast 500 575 37,000  Level FlightAware ADS-B
Wed 08:20:21 AM 41.4650 11.9170 126° Southeast 500 575 37,000 -87 Level FlightAware ADS-B
Wed 08:20:58 AM 41.4180 12.0080 125° Southeast 500 575 36,900  Descending FlightAware ADS-B
Wed 08:21:35 AM 41.3690 12.1020 125° Southeast 501 577 37,000 86 Climbing FlightAware ADS-B
Wed 08:22:08 AM 41.3250 12.1850 125° Southeast 501 577 37,000  Level FlightAware ADS-B
Wed 08:22:44 AM 41.2770 12.2760 125° Southeast 501 577 37,000  Level FlightAware ADS-B
Wed 08:23:16 AM 41.2340 12.3560 126° Southeast 500 575 37,000  Level FlightAware ADS-B
Wed 08:23:52 AM 41.1860 12.4490 124° Southeast 501 577 37,000  Level FlightAware ADS-B
Wed 08:24:29 AM 41.1390 12.5340 126° Southeast 502 578 37,000  Level FlightAware ADS-B
Wed 08:25:05 AM 41.0900 12.6270 125° Southeast 502 578 37,000 -91 Level FlightAware ADS-B
Wed 08:25:35 AM 41.0500 12.7020 125° Southeast 501 577 36,900  Descending FlightAware ADS-B
Wed 08:26:14 AM 40.9990 12.7940 126° Southeast 499 574 37,000  Climbing FlightAware ADS-B
Wed 08:26:47 AM 40.9490 12.8890 125° Southeast 498 573 36,900  Descending FlightAware ADS-B
Wed 08:27:23 AM 40.9050 12.9810 122° Southeast 495 570 37,000 83 Climbing FlightAware ADS-B
Wed 08:27:59 AM 40.8640 13.0720 121° Southeast 496 571 37,000  Level FlightAware ADS-B
Wed 08:28:35 AM 40.8220 13.1690 120° Southeast 495 570 37,000  Level FlightAware ADS-B
Wed 08:29:07 AM 40.7850 13.2520 120° Southeast 492 566 37,000  Level FlightAware ADS-B
Wed 08:29:41 AM 40.7460 13.3400 120° Southeast 491 565 37,000 -83 Level FlightAware ADS-B
Wed 08:30:19 AM 40.7030 13.4380 120° Southeast 489 563 36,900 -86 Descending FlightAware ADS-B
Wed 08:30:51 AM 40.6670 13.5210 120° Southeast 487 560 36,900  Level FlightAware ADS-B
Wed 08:31:27 AM 40.6260 13.6130 120° Southeast 484 557 36,900  Level FlightAware ADS-B
Wed 08:32:03 AM 40.5860 13.7040 120° Southeast 481 554 36,900 83 Level FlightAware ADS-B
Wed 08:32:39 AM 40.5450 13.7940 121° Southeast 479 551 37,000 83 Climbing FlightAware ADS-B
Wed 08:33:15 AM 40.5060 13.8820 120° Southeast 477 549 37,000 -91 Level FlightAware ADS-B
Wed 08:33:45 AM 40.4720 13.9570 121° Southeast 476 548 36,900  Descending FlightAware ADS-B
Wed 08:34:23 AM 40.4290 14.0540 120° Southeast 476 548 37,000 82 Climbing FlightAware ADS-B
Wed 08:34:58 AM 40.3910 14.1380 121° Southeast 477 549 37,000  Level FlightAware ADS-B
Wed 08:35:34 AM 40.3490 14.2310 121° Southeast 477 549 37,000  Level FlightAware ADS-B
Wed 08:36:14 AM 40.3060 14.3250 121° Southeast 479 551 37,000 -85 Level FlightAware ADS-B
Wed 08:36:45 AM 40.2700 14.4030 121° Southeast 481 554 36,900  Descending FlightAware ADS-B
Wed 08:37:25 AM 40.2230 14.5080 120° Southeast 484 557 37,000 79 Climbing FlightAware ADS-B
Wed 08:38:01 AM 40.1820 14.5990 121° Southeast 486 559 37,000  Level FlightAware ADS-B
Wed 08:38:33 AM 40.1440 14.6790 122° Southeast 487 560 37,000  Level FlightAware ADS-B
Wed 08:39:09 AM 40.1040 14.7650 121° Southeast 488 562 37,000  Level FlightAware ADS-B
Wed 08:39:45 AM 40.0600 14.8610 121° Southeast 491 565 37,000 -87 Level FlightAware ADS-B
Wed 08:40:18 AM 40.0220 14.9430 121° Southeast 492 566 36,900  Descending FlightAware ADS-B
Wed 08:40:55 AM 39.9780 15.0390 121° Southeast 494 568 37,000 82 Climbing FlightAware ADS-B
Wed 08:41:31 AM 39.9350 15.1310 121° Southeast 496 571 37,000 -87 Level FlightAware ADS-B
Wed 08:42:04 AM 39.8970 15.2130 121° Southeast 497 572 36,900  Descending FlightAware ADS-B
Wed 08:42:41 AM 39.8520 15.3100 121° Southeast 498 573 37,000 87 Climbing FlightAware ADS-B
Wed 08:43:13 AM 39.8140 15.3890 122° Southeast 498 573 37,000  Level FlightAware ADS-B
Wed 08:43:49 AM 39.7700 15.4810 122° Southeast 499 574 37,000 -86 Level FlightAware ADS-B
Wed 08:44:23 AM 39.7290 15.5680 121° Southeast 500 575 36,900  Descending FlightAware ADS-B
Wed 08:45:01 AM 39.6840 15.6650 121° Southeast 499 574 37,000  Climbing FlightAware ADS-B
Wed 08:45:34 AM 39.6470 15.7520 119° Southeast 499 574 36,900 -87 Descending FlightAware ADS-B
Wed 08:46:10 AM 39.6110 15.8520 115° Southeast 498 573 36,900  Level FlightAware ADS-B
Wed 08:46:46 AM 39.5790 15.9480 113° Southeast 499 574 36,900  Level FlightAware ADS-B
Wed 08:47:18 AM 39.5490 16.0380 113° Southeast 500 575 36,900  Level FlightAware ADS-B
Wed 08:47:54 AM 39.5160 16.1370 113° Southeast 499 574 36,900  Level FlightAware ADS-B
Wed 08:48:30 AM 39.4840 16.2330 113° Southeast 499 574 36,900 83 Level FlightAware ADS-B
Wed 08:49:06 AM 39.4510 16.3320 113° Southeast 499 574 37,000 86 Climbing FlightAware ADS-B
Wed 08:49:40 AM 39.4210 16.4220 113° Southeast 500 575 37,000 -86 Level FlightAware ADS-B
Wed 08:50:16 AM 39.3860 16.5270 113° Southeast 499 574 36,900  Descending FlightAware ADS-B
Wed 08:50:50 AM 39.3560 16.6170 113° Southeast 499 574 37,000 86 Climbing FlightAware ADS-B
Wed 08:51:26 AM 39.3220 16.7150 114° Southeast 500 575 37,000  Level FlightAware ADS-B
Wed 08:51:56 AM 39.2950 16.7980 113° Southeast 500 575 37,000  Level FlightAware ADS-B
Wed 08:52:35 AM 39.2600 16.9020 113° Southeast 501 577 37,000 -79 Level FlightAware ADS-B
Wed 08:53:12 AM 39.2230 17.0080 114° Southeast 501 577 36,900  Descending FlightAware ADS-B
Wed 08:53:38 AM 39.2000 17.0760 114° Southeast 500 575 37,000  Climbing FlightAware ADS-B
Wed 08:54:20 AM 39.1600 17.1900 114° Southeast 500 575 36,900  Descending FlightAware ADS-B
Wed 08:54:56 AM 39.1260 17.2910 113° Southeast 500 575 37,000 88 Climbing FlightAware ADS-B
Wed 08:55:28 AM 39.0970 17.3760 114° Southeast 503 579 37,000  Level FlightAware ADS-B
Wed 08:56:06 AM 39.0620 17.4770 114° Southeast 506 582 37,000 -81 Level FlightAware ADS-B
Wed 08:56:42 AM 39.0250 17.5820 114° Southeast 509 586 36,900  Descending FlightAware ADS-B
Wed 08:57:14 AM 38.9950 17.6680 114° Southeast 510 587 37,000 88 Climbing FlightAware ADS-B
Wed 08:57:50 AM 38.9590 17.7700 114° Southeast 512 589 37,000  Level FlightAware ADS-B
Wed 08:58:26 AM 38.9250 17.8670 114° Southeast 512 589 37,000  Level FlightAware ADS-B
Wed 08:58:58 AM 38.8930 17.9590 114° Southeast 511 588 37,000  Level FlightAware ADS-B
Wed 08:59:36 AM 38.8580 18.0580 114° Southeast 511 588 37,000  Level FlightAware ADS-B
Wed 09:00:10 AM 38.8230 18.1570 114° Southeast 510 587 37,000  Level FlightAware ADS-B
Wed 09:00:46 AM 38.7870 18.2560 115° Southeast 509 586 37,000  Level FlightAware ADS-B
Wed 09:01:18 AM 38.7550 18.3440 115° Southeast 508 585 37,000  Level FlightAware ADS-B
Wed 09:01:54 AM 38.7220 18.4390 114° Southeast 507 583 37,000  Level FlightAware ADS-B
Wed 09:02:32 AM 38.6840 18.5430 115° Southeast 506 582 37,000  Level FlightAware ADS-B
Wed 09:03:04 AM 38.6520 18.6320 115° Southeast 506 582 37,000 -94 Level FlightAware ADS-B
Wed 09:03:36 AM 38.6230 18.7200 113° Southeast 505 581 36,900 -86 Descending FlightAware ADS-B
Wed 09:04:14 AM 38.5920 18.8240 111° Southeast 505 581 36,900  Level FlightAware ADS-B
Wed 09:04:44 AM 38.5770 18.8740 111° Southeast 505 581 36,900 77 Level FlightAware ADS-B
Wed 09:05:32 AM 38.5300 19.0260 112° Southeast 501 577 37,000 68 Climbing FlightAware ADS-B
Wed 09:06:12 AM 38.5030 19.1210 110° East 501 577 37,000  Level FlightAware ADS-B
Wed 09:06:48 AM 38.4790 19.2060 110° East 501 577 37,000  Level FlightAware ADS-B
Wed 09:07:26 AM 38.4420 19.3240 112° Southeast 514 592 37,000  Level FlightAware ADS-B
Wed 09:08:06 AM 38.4090 19.4320 111° Southeast 518 596 37,000  Level FlightAware ADS-B
Wed 09:08:38 AM 38.3790 19.5320 111° Southeast 520 598 37,000  Level FlightAware ADS-B
Wed 09:09:17 AM 38.3440 19.6470 111° Southeast 523 602 37,000  Level FlightAware ADS-B
Wed 09:09:58 AM 38.3110 19.7560 111° Southeast 525 604 37,000 -77 Level FlightAware ADS-B
Wed 09:10:35 AM 38.2760 19.8680 112° Southeast 524 603 36,900 -78 Descending FlightAware ADS-B
Wed 09:11:15 AM 38.2410 19.9830 111° Southeast 519 597 36,900 81 Level FlightAware ADS-B
Wed 09:11:49 AM 38.2110 20.0820 111° Southeast 516 594 37,000 77 Climbing FlightAware ADS-B
Wed 09:12:33 AM 38.1770 20.1910 112° Southeast 514 592 37,000  Level FlightAware ADS-B
Wed 09:13:10 AM 38.1510 20.2800 110° East 514 592 37,000  Level FlightAware ADS-B
Wed 09:13:47 AM 38.1240 20.3690 111° Southeast 514 592 37,000  Level FlightAware ADS-B
Wed 09:14:24 AM 38.0970 20.4570 111° Southeast 514 592 37,000  Level FlightAware ADS-B
Wed 09:15:12 AM 38.0620 20.5720 111° Southeast 514 592 37,000  Level FlightAware ADS-B
Wed 09:15:53 AM 37.9900 20.7880 113° Southeast 502 578 37,000  Level FlightAware ADS-B
Wed 09:16:33 AM 37.9580 20.8930 111° Southeast 502 578 37,000  Level FlightAware ADS-B
Wed 09:17:12 AM 37.9300 20.9840 111° Southeast 502 578 37,000  Level FlightAware ADS-B
Wed 09:17:47 AM 37.8900 21.1040 113° Southeast 505 581 37,000  Level FlightAware ADS-B
Wed 09:18:19 AM 37.8620 21.1910 112° Southeast 504 580 37,000  Level FlightAware ADS-B
Wed 09:18:57 AM 37.8290 21.2950 112° Southeast 505 581 37,000  Level FlightAware ADS-B
Wed 09:19:33 AM 37.7970 21.3940 112° Southeast 505 581 37,000  Level FlightAware ADS-B
Wed 09:20:11 AM 37.7630 21.5000 112° Southeast 505 581 37,000  Level FlightAware ADS-B
Wed 09:20:51 AM 37.7330 21.5930 112° Southeast 505 581 37,000  Level FlightAware ADS-B
Wed 09:21:26 AM 37.7060 21.6750 113° Southeast 347 399 37,000  Level FlightAware ADS-B
Wed 09:21:37 AM 37.6860 21.7350 113° Southeast 505 581 37,000  Level FlightAware ADS-B
Wed 09:22:12 AM 37.6610 21.8110 113° Southeast 504 580 37,000  Level FlightAware ADS-B
Wed 09:22:59 AM 37.6200 21.9390 112° Southeast 505 581 37,000  Level FlightAware ADS-B
Wed 09:23:54 AM 37.5740 22.0770 113° Southeast 505 581 37,000  Level FlightAware ADS-B
Wed 09:24:36 AM 37.5350 22.1950 113° Southeast 510 587 37,000 -78 Level FlightAware ADS-B
Wed 09:25:11 AM 37.5010 22.2970 113° Southeast 512 589 36,900 -80 Descending FlightAware ADS-B
Wed 09:25:51 AM 37.4610 22.4150 113° Southeast 511 588 36,900 79 Level FlightAware ADS-B
Wed 09:26:27 AM 37.4290 22.5130 112° Southeast 510 587 37,000 82 Climbing FlightAware ADS-B
Wed 09:27:04 AM 37.3960 22.6090 113° Southeast 509 586 37,000  Level FlightAware ADS-B
Wed 09:27:41 AM 37.3580 22.7220 113° Southeast 512 589 37,000 -83 Level FlightAware ADS-B
Wed 09:28:16 AM 37.3230 22.8240 113° Southeast 516 594 36,900  Descending FlightAware ADS-B
Wed 09:28:52 AM 37.2890 22.9230 113° Southeast 517 595 37,000 77 Climbing FlightAware ADS-B
Wed 09:29:34 AM 37.2490 23.0420 113° Southeast 518 596 37,000  Level FlightAware ADS-B
Wed 09:30:11 AM 37.2150 23.1410 113° Southeast 521 600 37,000  Level FlightAware ADS-B
Wed 09:30:41 AM 37.1890 23.2160 113° Southeast 519 597 37,000  Level FlightAware ADS-B
Wed 09:31:19 AM 37.1490 23.3330 113° Southeast 524 603 37,000  Level FlightAware ADS-B
Wed 09:31:50 AM 37.1210 23.4140 113° Southeast 526 605 37,000  Level FlightAware ADS-B
Wed 09:32:27 AM 37.0840 23.5210 113° Southeast 526 605 37,000  Level FlightAware ADS-B
Wed 09:33:05 AM 37.0460 23.6300 114° Southeast 526 605 37,000  Level FlightAware ADS-B
Wed 09:33:41 AM 37.0110 23.7300 114° Southeast 527 606 37,000  Level FlightAware ADS-B
Wed 09:34:13 AM 36.9800 23.8170 114° Southeast 527 606 37,000  Level FlightAware ADS-B
Wed 09:34:49 AM 36.9450 23.9200 113° Southeast 526 605 37,000 -88 Level FlightAware ADS-B
Wed 09:35:21 AM 36.9140 24.0060 114° Southeast 524 603 36,900  Descending FlightAware ADS-B
Wed 09:35:57 AM 36.8790 24.1050 114° Southeast 522 601 37,000 86 Climbing FlightAware ADS-B
Wed 09:36:31 AM 36.8450 24.2010 114° Southeast 521 600 37,000  Level FlightAware ADS-B
Wed 09:37:08 AM 36.8100 24.3000 114° Southeast 519 597 37,000  Level FlightAware ADS-B
Wed 09:37:43 AM 36.7750 24.3980 114° Southeast 519 597 37,000  Level FlightAware ADS-B
Wed 09:38:21 AM 36.7380 24.4990 115° Southeast 518 596 37,000  Level FlightAware ADS-B
Wed 09:38:55 AM 36.7040 24.5950 114° Southeast 518 596 37,000  Level FlightAware ADS-B
Wed 09:39:31 AM 36.6690 24.6930 114° Southeast 519 597 37,000  Level FlightAware ADS-B
Wed 09:40:03 AM 36.6380 24.7780 114° Southeast 520 598 37,000  Level FlightAware ADS-B
Wed 09:40:35 AM 36.6060 24.8650 115° Southeast 520 598 37,000  Level FlightAware ADS-B
Wed 09:41:15 AM 36.5660 24.9770 114° Southeast 522 601 37,000  Level FlightAware ADS-B
Wed 09:41:47 AM 36.5340 25.0650 114° Southeast 523 602 37,000  Level FlightAware ADS-B
Wed 09:42:23 AM 36.4980 25.1630 115° Southeast 523 602 37,000  Level FlightAware ADS-B
Wed 09:42:57 AM 36.4640 25.2560 114° Southeast 524 603 37,000  Level FlightAware ADS-B
Wed 09:43:33 AM 36.4280 25.3550 114° Southeast 524 603 37,000  Level FlightAware ADS-B
Wed 09:44:09 AM 36.3920 25.4510 115° Southeast 524 603 37,000  Level FlightAware ADS-B
Wed 09:44:43 AM 36.3570 25.5440 115° Southeast 523 602 37,000  Level FlightAware ADS-B
Wed 09:45:17 AM 36.3220 25.6390 115° Southeast 521 600 37,000  Level FlightAware ADS-B
Wed 09:45:53 AM 36.2860 25.7360 115° Southeast 520 598 37,000  Level FlightAware ADS-B
Wed 09:46:29 AM 36.2500 25.8310 115° Southeast 519 597 37,000  Level FlightAware ADS-B
Wed 09:47:03 AM 36.2160 25.9220 115° Southeast 519 597 37,000  Level FlightAware ADS-B
Wed 09:47:38 AM 36.1810 26.0170 115° Southeast 519 597 37,000  Level FlightAware ADS-B
Wed 09:48:15 AM 36.1430 26.1170 115° Southeast 519 597 37,000  Level FlightAware ADS-B
Wed 09:48:45 AM 36.1130 26.1970 115° Southeast 518 596 37,000  Level FlightAware ADS-B
Wed 09:49:23 AM 36.0730 26.2990 116° Southeast 517 595 37,000  Level FlightAware ADS-B
Wed 09:49:59 AM 36.0360 26.3980 115° Southeast 517 595 37,000  Level FlightAware ADS-B
Wed 09:50:35 AM 36.0000 26.4940 115° Southeast 518 596 37,000  Level FlightAware ADS-B
Wed 09:51:07 AM 35.9680 26.5770 115° Southeast 520 598 37,000  Level FlightAware ADS-B
Wed 09:51:43 AM 35.9300 26.6760 115° Southeast 521 600 37,000  Level FlightAware ADS-B
Wed 09:52:17 AM 35.8950 26.7650 116° Southeast 522 601 37,000  Level FlightAware ADS-B
Wed 09:52:53 AM 35.8600 26.8560 115° Southeast 523 602 37,000  Level FlightAware ADS-B
Wed 09:53:28 AM 35.8250 26.9450 116° Southeast 523 602 37,000  Level FlightAware ADS-B
Wed 09:54:01 AM 35.7920 27.0340 115° Southeast 524 603 37,000  Level FlightAware ADS-B
Wed 09:54:37 AM 35.7610 27.1170 115° Southeast 524 603 37,000  Level FlightAware ADS-B
Wed 09:55:22 AM 35.7070 27.2490 117° Southeast 525 604 37,000  Level FlightAware ADS-B
Wed 09:55:58 AM 35.6760 27.3320 115° Southeast 525 604 37,000  Level FlightAware ADS-B
Wed 09:56:35 AM 35.6440 27.4170 115° Southeast 525 604 37,000  Level FlightAware ADS-B
Wed 09:57:11 AM 35.6120 27.5000 115° Southeast 525 604 37,000  Level FlightAware ADS-B
Wed 09:57:47 AM 35.5810 27.5830 115° Southeast 525 604 37,000  Level FlightAware ADS-B
Wed 09:58:21 AM 35.5510 27.6610 115° Southeast 525 604 37,000  Level FlightAware ADS-B
Wed 09:58:57 AM 35.5200 27.7440 115° Southeast 525 604 37,000  Level FlightAware ADS-B
Wed 09:59:33 AM 35.4880 27.8270 115° Southeast 525 604 37,000  Level FlightAware ADS-B
Wed 10:00:09 AM 35.3980 28.0280 119° Southeast 522 601 37,000 -86 Level FlightAware ADS-B
Wed 10:00:43 AM 35.3590 28.1240 116° Southeast 524 603 36,900 -600 Descending FlightAware ADS-B
Wed 10:01:19 AM 35.3220 28.2170 116° Southeast 521 600 36,300 -1,091 Descending FlightAware ADS-B
Wed 10:01:49 AM 35.2880 28.3010 116° Southeast 520 598 35,700 -1,183 Descending FlightAware ADS-B
Wed 10:02:30 AM 35.2460 28.4070 116° Southeast 521 600 34,900 -1,054 Descending FlightAware ADS-B
Wed 10:03:03 AM 35.2090 28.4970 117° Southeast 520 598 34,400 -923 Descending FlightAware ADS-B
Wed 10:03:35 AM 35.1750 28.5780 117° Southeast 517 595 33,900 -643 Descending FlightAware ADS-B
Wed 10:04:27 AM 35.1280 28.6960 116° Southeast 517 595 33,500 -270 Descending FlightAware ADS-B
Wed 10:05:04 AM 35.0950 28.7780 116° Southeast 517 595 33,500 -405 Level FlightAware ADS-B
Wed 10:05:41 AM 35.0430 28.9030 117° Southeast 514 592 33,000 -390 Descending FlightAware ADS-B
Wed 10:06:21 AM 35.0060 28.9950 116° Southeast 513 590 33,000  Level FlightAware ADS-B
Wed 10:06:57 AM 34.9740 29.0740 116° Southeast 513 590 33,000  Level FlightAware ADS-B
Wed 10:07:33 AM 34.9420 29.1540 116° Southeast 513 590 33,000  Level FlightAware ADS-B
Wed 10:08:09 AM 34.9100 29.2340 116° Southeast 513 590 33,000  Level FlightAware ADS-B
Wed 10:08:47 AM 34.8770 29.3180 116° Southeast 513 590 33,000  Level FlightAware ADS-B
Wed 10:09:21 AM 34.8120 29.4580 119° Southeast 33,000  Level FlightAware ADS-B
Wed 10:09:52 AM 34.7750 29.5470 117° Southeast 508 585 33,000  Level FlightAware ADS-B
Wed 10:10:26 AM 34.7390 29.6330 117° Southeast 504 580 33,000  Level FlightAware ADS-B
Wed 10:11:02 AM 34.6990 29.7210 119° Southeast 502 578 33,000  Level FlightAware ADS-B
Wed 10:11:38 AM 34.6590 29.8050 120° Southeast 502 578 33,000  Level FlightAware ADS-B
Wed 10:12:29 AM 34.6050 29.9200 120° Southeast 503 579 33,000  Level FlightAware ADS-B
Wed 10:13:05 AM 34.5700 29.9960 119° Southeast 503 579 33,000  Level FlightAware ADS-B
Wed 10:13:42 AM 34.5350 30.0740 119° Southeast 503 579 33,000  Level FlightAware ADS-B
Wed 10:14:27 AM 34.4570 30.2310 121° Southeast 513 590 33,000  Level FlightAware ADS-B
Wed 10:15:02 AM 34.4160 30.3180 120° Southeast 513 590 33,000  Level FlightAware ADS-B
Wed 10:15:43 AM 34.3700 30.4150 120° Southeast 513 590 33,000  Level FlightAware ADS-B
Wed 10:16:22 AM 34.3220 30.5150 120° Southeast 513 590 33,000  Level FlightAware ADS-B
Wed 10:16:53 AM 34.2850 30.5920 120° Southeast 513 590 33,000  Level FlightAware ADS-B
Wed 10:17:27 AM 34.2430 30.6790 120° Southeast 513 590 33,000  Level FlightAware ADS-B
Wed 10:18:02 AM 34.2010 30.7650 121° Southeast 513 590 33,000  Level FlightAware ADS-B
Wed 10:18:38 AM 34.1580 30.8550 120° Southeast 512 589 33,000  Level FlightAware ADS-B
Wed 10:19:13 AM 34.1160 30.9430 120° Southeast 511 588 33,000  Level FlightAware ADS-B
Wed 10:19:49 AM 34.0740 31.0290 121° Southeast 509 586 33,000  Level FlightAware ADS-B
Wed 10:20:24 AM 34.0330 31.1150 120° Southeast 507 583 33,000  Level FlightAware ADS-B
Wed 10:20:58 AM 33.9910 31.2000 121° Southeast 507 583 33,000  Level FlightAware ADS-B
Wed 10:21:35 AM 33.9480 31.2880 120° Southeast 507 583 33,000  Level FlightAware ADS-B
Wed 10:22:04 AM 33.9130 31.3580 121° Southeast 507 583 33,000  Level FlightAware ADS-B
Wed 10:22:45 AM 33.8660 31.4550 120° Southeast 507 583 33,000  Level FlightAware ADS-B
Wed 10:23:20 AM 33.8220 31.5430 121° Southeast 506 582 33,000  Level FlightAware ADS-B
Wed 10:23:54 AM 33.7830 31.6250 120° Southeast 505 581 33,000  Level FlightAware ADS-B
Wed 10:24:30 AM 33.7400 31.7090 122° Southeast 505 581 33,000  Level FlightAware ADS-B
Wed 10:25:04 AM 33.6980 31.7940 121° Southeast 505 581 33,000  Level FlightAware ADS-B
Wed 10:25:40 AM 33.6550 31.8800 121° Southeast 504 580 33,000  Level FlightAware ADS-B
Wed 10:26:14 AM 33.6160 31.9600 120° Southeast 504 580 33,000  Level FlightAware ADS-B
Wed 10:26:50 AM 33.5730 32.0460 121° Southeast 505 581 33,000  Level FlightAware ADS-B
Wed 10:27:25 AM 33.5290 32.1350 121° Southeast 505 581 33,000  Level FlightAware ADS-B
Wed 10:27:56 AM 33.4920 32.2070 122° Southeast 507 583 33,000  Level FlightAware ADS-B
Wed 10:28:30 AM 33.4500 32.2910 121° Southeast 508 585 33,000 -160 Level FlightAware ADS-B
Wed 10:29:11 AM 33.4020 32.3860 121° Southeast 509 586 32,800 -845 Descending FlightAware ADS-B
Wed 10:29:41 AM 33.3640 32.4610 121° Southeast 517 595 32,000 -1,091 Descending FlightAware ADS-B
Wed 10:30:17 AM 33.3240 32.5400 121° Southeast 523 602 31,600 -789 Descending FlightAware ADS-B
Wed 10:30:57 AM 33.2680 32.6490 122° Southeast 515 593 31,000 -1,026 Descending FlightAware ADS-B
Wed 10:31:33 AM 33.2240 32.7370 121° Southeast 510 587 30,300 -1,108 Descending FlightAware ADS-B
Wed 10:32:02 AM 33.1870 32.8090 122° Southeast 510 587 29,800 -1,071 Descending FlightAware ADS-B
Wed 10:32:57 AM 33.1920 32.8000 304° West 507 583 28,800 -1,074 Descending FlightAware ADS-B
Wed 10:33:37 AM 33.0750 33.0280 121° Southeast 495 570 28,100 -1,259 Descending FlightAware ADS-B
Wed 10:34:18 AM 33.0270 33.1220 121° Southeast 487 560 27,100 -1,478 Descending FlightAware ADS-B
Wed 10:34:46 AM 32.9980 33.1790 121° Southeast 483 556 26,400 -1,756 Descending FlightAware ADS-B
Wed 10:35:40 AM 32.9290 33.3110 122° Southeast 465 535 24,700 -2,020 Descending FlightAware ADS-B
Wed 10:36:24 AM 32.8810 33.4040 122° Southeast 464 534 23,100 -2,122 Descending FlightAware ADS-B
Wed 10:37:02 AM 32.8380 33.4880 121° Southeast 453 521 21,800 -2,083 Descending FlightAware ADS-B
Wed 10:37:36 AM 32.8000 33.5610 122° Southeast 445 512 20,600 -2,294 Descending FlightAware ADS-B
Wed 10:38:10 AM 32.7630 33.6320 122° Southeast 437 503 19,200 -2,314 Descending FlightAware ADS-B
Wed 10:38:46 AM 32.7240 33.7030 123° Southeast 424 488 17,900 -2,143 Descending FlightAware ADS-B
Wed 10:39:20 AM 32.6820 33.7630 130° Southeast 409 471 16,700 -2,156 Descending FlightAware ADS-B
Wed 10:39:50 AM 32.6480 33.8140 128° Southeast 400 460 15,600 -2,333 Descending FlightAware ADS-B
Wed 10:40:32 AM 32.6000 33.8880 128° Southeast 392 451 13,900 -2,368 Descending FlightAware ADS-B
Wed 10:41:06 AM 32.5630 33.9460 127° Southeast 385 443 12,600 -2,143 Descending FlightAware ADS-B
Wed 10:41:42 AM 32.5260 34.0040 127° Southeast 378 435 11,400 -2,057 Descending FlightAware ADS-B
Wed 10:42:16 AM 32.4900 34.0610 127° Southeast 370 426 10,200 -1,520 Descending FlightAware ADS-B
Wed 10:42:57 AM 32.4510 34.1220 127° Southeast 371 427 9,500 -2,357 Descending FlightAware ADS-B
Wed 10:43:12 AM 32.4310 34.1520 128° Southeast 373 429 8,000 -2,919 Descending FlightAware ADS-B
Wed 10:43:34 AM 32.4070 34.1880 128° Southeast 372 428 7,700 -471 Descending FlightAware ADS-B
Wed 10:44:03 AM 32.3820 34.2290 126° Southeast 371 427 7,600 -207 Descending FlightAware ADS-B
Wed 10:46:00 AM 32.2527 34.5186 132° Southeast  Level FlightAware Approximate
Wed 10:47:00 AM 32.1667 34.6456 90° East  Level FlightAware Approximate
Wed 10:48:00 AM 32.0748 34.7690 133° Southeast  Level FlightAware Approximate
Wed 10:49:00 AM 32.0000 34.8667 131° Southeast  Level FlightAware Approximate
Wed 10:50:00 AM 32.0095 34.8769 131° Southeast  Level Estimated
Wed 10:51:00 AM 32.0095 34.8769 131° Southeast  Level Estimated
Wed 10:52:00 AM 32.0095 34.8769 131° Southeast  Level Estimated
Wed 10:53:00 AM 32.0095 34.8769 131° Southeast  Level Estimated
Wed 10:54:00 AM 32.0095 34.8769 131° Southeast  Level Estimated
Wed 10:55:00 AM 32.0095 34.8769 131° Southeast  Level Estimated
Wed 10:56:00 AM 32.0095 34.8769 131° Southeast  Level Estimated
Wed 10:57:00 AM 32.0095 34.8769 131° Southeast  Level Estimated
Wed 10:58:00 AM 32.0095 34.8769 131° Southeast  Level Estimated

Login

Don't have an account? Register now (free) for customized features, flight alerts, and more!